<?xml version="1.0" encoding="UTF-8" standalone="no" ?>
<gpx xmlns="http://www.topografix.com/GPX/1/1" xmlns:xsi="http://www.w3.org/2001/XMLSchema-instance" creator="CompeGPS" version="1.1" xsi:schemaLocation="http://www.topografix.com/GPX/1/1 http://www.topografix.com/GPX/1/1/gpx.xsd http://www.garmin.com/xmlschemas/GpxExtensions/v3 http://www.garmin.com/xmlschemas/GpxExtensionsv3.xsd http://www.garmin.com/xmlschemas/TrackPointExtension/v1 http://www.garmin.com/xmlschemas/TrackPointExtensionv1.xsd" xmlns:gpxtpx="http://www.garmin.com/xmlschemas/TrackPointExtension/v1">
  <metadata>
    <link href="http://www.compegps.com">
      <text>CompeGPS TEAM, SL</text>
    </link>
    <time>2014-02-03T18:38:31Z</time>
    <bounds maxlat="43.475975" maxlon="1.528025" minlat="43.457380" minlon="1.494799"/>
  </metadata>
<wpt lat="43.473481" lon="1.494997">
<ele>240</ele>
<name>Depart Corronsac</name>
</wpt>
<wpt lat="43.466494" lon="1.517259">
<ele>250</ele>
<name>Vassal</name>
</wpt>
<wpt lat="43.463062" lon="1.528025">
<ele>195</ele>
<name>Bois de la Tuilerie</name>
</wpt>
<wpt lat="43.457380" lon="1.522724">
<ele>275</ele>
<name>Montbrun-Lauragais</name>
</wpt>
<trk>
    <name>Corronzac-Montbrun</name>
    <trkseg>
      <trkpt lat="43.473481" lon="1.494997">
        <ele>234.9</ele>
        <time>2014-02-03T13:31:18Z</time>
        <name>Depart Corronsac</name>
      </trkpt>
      <trkpt lat="43.473503" lon="1.495144">
        <ele>234.7</ele>
        <time>2014-02-03T13:31:47Z</time>
      </trkpt>
      <trkpt lat="43.473513" lon="1.495282">
        <ele>235.0</ele>
        <time>2014-02-03T13:32:00Z</time>
      </trkpt>
      <trkpt lat="43.473506" lon="1.495418">
        <ele>235.5</ele>
        <time>2014-02-03T13:32:12Z</time>
      </trkpt>
      <trkpt lat="43.473494" lon="1.495560">
        <ele>236.0</ele>
        <time>2014-02-03T13:32:26Z</time>
      </trkpt>
      <trkpt lat="43.473496" lon="1.495709">
        <ele>236.6</ele>
        <time>2014-02-03T13:32:40Z</time>
      </trkpt>
      <trkpt lat="43.473485" lon="1.495869">
        <ele>236.6</ele>
        <time>2014-02-03T13:32:58Z</time>
      </trkpt>
      <trkpt lat="43.473480" lon="1.496024">
        <ele>237.1</ele>
        <time>2014-02-03T13:33:13Z</time>
      </trkpt>
      <trkpt lat="43.473463" lon="1.496188">
        <ele>237.4</ele>
        <time>2014-02-03T13:33:27Z</time>
      </trkpt>
      <trkpt lat="43.473447" lon="1.496321">
        <ele>237.5</ele>
        <time>2014-02-03T13:33:39Z</time>
      </trkpt>
      <trkpt lat="43.473425" lon="1.496454">
        <ele>237.5</ele>
        <time>2014-02-03T13:33:52Z</time>
      </trkpt>
      <trkpt lat="43.473403" lon="1.496592">
        <ele>237.6</ele>
        <time>2014-02-03T13:34:03Z</time>
      </trkpt>
      <trkpt lat="43.473376" lon="1.496741">
        <ele>237.9</ele>
        <time>2014-02-03T13:34:13Z</time>
      </trkpt>
      <trkpt lat="43.473347" lon="1.496882">
        <ele>237.8</ele>
        <time>2014-02-03T13:34:21Z</time>
      </trkpt>
      <trkpt lat="43.473360" lon="1.497013">
        <ele>237.9</ele>
        <time>2014-02-03T13:34:29Z</time>
      </trkpt>
      <trkpt lat="43.473406" lon="1.497130">
        <ele>237.8</ele>
        <time>2014-02-03T13:34:38Z</time>
      </trkpt>
      <trkpt lat="43.473493" lon="1.497205">
        <ele>237.7</ele>
        <time>2014-02-03T13:34:46Z</time>
      </trkpt>
      <trkpt lat="43.473586" lon="1.497249">
        <ele>237.8</ele>
        <time>2014-02-03T13:34:54Z</time>
      </trkpt>
      <trkpt lat="43.473668" lon="1.497303">
        <ele>237.9</ele>
        <time>2014-02-03T13:35:02Z</time>
      </trkpt>
      <trkpt lat="43.473765" lon="1.497351">
        <ele>238.1</ele>
        <time>2014-02-03T13:35:12Z</time>
      </trkpt>
      <trkpt lat="43.473869" lon="1.497398">
        <ele>238.5</ele>
        <time>2014-02-03T13:35:23Z</time>
      </trkpt>
      <trkpt lat="43.473949" lon="1.497472">
        <ele>238.5</ele>
        <time>2014-02-03T13:35:32Z</time>
      </trkpt>
      <trkpt lat="43.474035" lon="1.497523">
        <ele>238.6</ele>
        <time>2014-02-03T13:35:40Z</time>
      </trkpt>
      <trkpt lat="43.474003" lon="1.497616">
        <ele>238.9</ele>
        <time>2014-02-03T13:35:50Z</time>
      </trkpt>
      <trkpt lat="43.473976" lon="1.497756">
        <ele>238.9</ele>
        <time>2014-02-03T13:36:00Z</time>
      </trkpt>
      <trkpt lat="43.474012" lon="1.497879">
        <ele>239.3</ele>
        <time>2014-02-03T13:36:09Z</time>
      </trkpt>
      <trkpt lat="43.474054" lon="1.498004">
        <ele>239.6</ele>
        <time>2014-02-03T13:36:17Z</time>
      </trkpt>
      <trkpt lat="43.474127" lon="1.498080">
        <ele>239.9</ele>
        <time>2014-02-03T13:36:25Z</time>
      </trkpt>
      <trkpt lat="43.474181" lon="1.498196">
        <ele>240.6</ele>
        <time>2014-02-03T13:36:33Z</time>
      </trkpt>
      <trkpt lat="43.474195" lon="1.498333">
        <ele>241.7</ele>
        <time>2014-02-03T13:36:41Z</time>
      </trkpt>
      <trkpt lat="43.474193" lon="1.498453">
        <ele>242.0</ele>
        <time>2014-02-03T13:36:49Z</time>
      </trkpt>
      <trkpt lat="43.474170" lon="1.498582">
        <ele>242.1</ele>
        <time>2014-02-03T13:36:58Z</time>
      </trkpt>
      <trkpt lat="43.474155" lon="1.498719">
        <ele>241.9</ele>
        <time>2014-02-03T13:37:07Z</time>
      </trkpt>
      <trkpt lat="43.474139" lon="1.498893">
        <ele>241.4</ele>
        <time>2014-02-03T13:37:17Z</time>
      </trkpt>
      <trkpt lat="43.474125" lon="1.499054">
        <ele>241.7</ele>
        <time>2014-02-03T13:37:26Z</time>
      </trkpt>
      <trkpt lat="43.474114" lon="1.499202">
        <ele>241.8</ele>
        <time>2014-02-03T13:37:34Z</time>
      </trkpt>
      <trkpt lat="43.474102" lon="1.499352">
        <ele>242.3</ele>
        <time>2014-02-03T13:37:42Z</time>
      </trkpt>
      <trkpt lat="43.474107" lon="1.499490">
        <ele>242.9</ele>
        <time>2014-02-03T13:37:50Z</time>
      </trkpt>
      <trkpt lat="43.474132" lon="1.499677">
        <ele>243.6</ele>
        <time>2014-02-03T13:37:58Z</time>
      </trkpt>
      <trkpt lat="43.474155" lon="1.499811">
        <ele>244.6</ele>
        <time>2014-02-03T13:38:07Z</time>
      </trkpt>
      <trkpt lat="43.474206" lon="1.499936">
        <ele>245.8</ele>
        <time>2014-02-03T13:38:16Z</time>
      </trkpt>
      <trkpt lat="43.474281" lon="1.500059">
        <ele>247.0</ele>
        <time>2014-02-03T13:38:25Z</time>
      </trkpt>
      <trkpt lat="43.474352" lon="1.500194">
        <ele>248.6</ele>
        <time>2014-02-03T13:38:34Z</time>
      </trkpt>
      <trkpt lat="43.474410" lon="1.500319">
        <ele>250.4</ele>
        <time>2014-02-03T13:38:43Z</time>
      </trkpt>
      <trkpt lat="43.474457" lon="1.500445">
        <ele>251.9</ele>
        <time>2014-02-03T13:38:51Z</time>
      </trkpt>
      <trkpt lat="43.474541" lon="1.500563">
        <ele>253.4</ele>
        <time>2014-02-03T13:39:00Z</time>
      </trkpt>
      <trkpt lat="43.474590" lon="1.500678">
        <ele>254.6</ele>
        <time>2014-02-03T13:39:08Z</time>
      </trkpt>
      <trkpt lat="43.474663" lon="1.500796">
        <ele>256.1</ele>
        <time>2014-02-03T13:39:17Z</time>
      </trkpt>
      <trkpt lat="43.474744" lon="1.500895">
        <ele>257.9</ele>
        <time>2014-02-03T13:39:26Z</time>
      </trkpt>
      <trkpt lat="43.474823" lon="1.501005">
        <ele>259.7</ele>
        <time>2014-02-03T13:39:37Z</time>
      </trkpt>
      <trkpt lat="43.474897" lon="1.501102">
        <ele>261.0</ele>
        <time>2014-02-03T13:39:47Z</time>
      </trkpt>
      <trkpt lat="43.474982" lon="1.501198">
        <ele>262.8</ele>
        <time>2014-02-03T13:39:56Z</time>
      </trkpt>
      <trkpt lat="43.475062" lon="1.501305">
        <ele>263.8</ele>
        <time>2014-02-03T13:40:06Z</time>
      </trkpt>
      <trkpt lat="43.475144" lon="1.501402">
        <ele>264.8</ele>
        <time>2014-02-03T13:40:15Z</time>
      </trkpt>
      <trkpt lat="43.475220" lon="1.501506">
        <ele>265.7</ele>
        <time>2014-02-03T13:40:23Z</time>
      </trkpt>
      <trkpt lat="43.475291" lon="1.501589">
        <ele>266.9</ele>
        <time>2014-02-03T13:40:33Z</time>
      </trkpt>
      <trkpt lat="43.475355" lon="1.501663">
        <ele>267.7</ele>
        <time>2014-02-03T13:40:45Z</time>
      </trkpt>
      <trkpt lat="43.475438" lon="1.501724">
        <ele>268.2</ele>
        <time>2014-02-03T13:40:53Z</time>
      </trkpt>
      <trkpt lat="43.475521" lon="1.501791">
        <ele>268.9</ele>
        <time>2014-02-03T13:41:01Z</time>
      </trkpt>
      <trkpt lat="43.475594" lon="1.501848">
        <ele>270.1</ele>
        <time>2014-02-03T13:41:09Z</time>
      </trkpt>
      <trkpt lat="43.475690" lon="1.501925">
        <ele>270.6</ele>
        <time>2014-02-03T13:41:19Z</time>
      </trkpt>
      <trkpt lat="43.475774" lon="1.502008">
        <ele>270.8</ele>
        <time>2014-02-03T13:41:28Z</time>
      </trkpt>
      <trkpt lat="43.475851" lon="1.502109">
        <ele>271.6</ele>
        <time>2014-02-03T13:41:36Z</time>
      </trkpt>
      <trkpt lat="43.475929" lon="1.502217">
        <ele>272.1</ele>
        <time>2014-02-03T13:41:44Z</time>
      </trkpt>
      <trkpt lat="43.475961" lon="1.502320">
        <ele>272.5</ele>
        <time>2014-02-03T13:42:43Z</time>
      </trkpt>
      <trkpt lat="43.475947" lon="1.502464">
        <ele>272.9</ele>
        <time>2014-02-03T13:42:51Z</time>
      </trkpt>
      <trkpt lat="43.475933" lon="1.502605">
        <ele>273.0</ele>
        <time>2014-02-03T13:42:59Z</time>
      </trkpt>
      <trkpt lat="43.475905" lon="1.502664">
        <ele>273.9</ele>
        <time>2014-02-03T13:43:15Z</time>
      </trkpt>
      <trkpt lat="43.475893" lon="1.502787">
        <ele>274.2</ele>
        <time>2014-02-03T13:44:08Z</time>
      </trkpt>
      <trkpt lat="43.475898" lon="1.502878">
        <ele>274.9</ele>
        <time>2014-02-03T13:44:23Z</time>
      </trkpt>
      <trkpt lat="43.475896" lon="1.503021">
        <ele>275.0</ele>
        <time>2014-02-03T13:44:32Z</time>
      </trkpt>
      <trkpt lat="43.475904" lon="1.503169">
        <ele>274.6</ele>
        <time>2014-02-03T13:44:41Z</time>
      </trkpt>
      <trkpt lat="43.475906" lon="1.503311">
        <ele>274.5</ele>
        <time>2014-02-03T13:44:49Z</time>
      </trkpt>
      <trkpt lat="43.475894" lon="1.503447">
        <ele>274.7</ele>
        <time>2014-02-03T13:44:56Z</time>
      </trkpt>
      <trkpt lat="43.475890" lon="1.503592">
        <ele>274.7</ele>
        <time>2014-02-03T13:45:04Z</time>
      </trkpt>
      <trkpt lat="43.475883" lon="1.503726">
        <ele>274.5</ele>
        <time>2014-02-03T13:45:12Z</time>
      </trkpt>
      <trkpt lat="43.475890" lon="1.503863">
        <ele>274.6</ele>
        <time>2014-02-03T13:45:19Z</time>
      </trkpt>
      <trkpt lat="43.475890" lon="1.504011">
        <ele>274.5</ele>
        <time>2014-02-03T13:45:27Z</time>
      </trkpt>
      <trkpt lat="43.475896" lon="1.504153">
        <ele>275.1</ele>
        <time>2014-02-03T13:45:35Z</time>
      </trkpt>
      <trkpt lat="43.475899" lon="1.504283">
        <ele>274.8</ele>
        <time>2014-02-03T13:45:42Z</time>
      </trkpt>
      <trkpt lat="43.475900" lon="1.504416">
        <ele>274.8</ele>
        <time>2014-02-03T13:45:49Z</time>
      </trkpt>
      <trkpt lat="43.475915" lon="1.504539">
        <ele>275.0</ele>
        <time>2014-02-03T13:45:56Z</time>
      </trkpt>
      <trkpt lat="43.475921" lon="1.504670">
        <ele>275.2</ele>
        <time>2014-02-03T13:46:03Z</time>
      </trkpt>
      <trkpt lat="43.475935" lon="1.504800">
        <ele>275.2</ele>
        <time>2014-02-03T13:46:10Z</time>
      </trkpt>
      <trkpt lat="43.475945" lon="1.504930">
        <ele>275.2</ele>
        <time>2014-02-03T13:46:17Z</time>
      </trkpt>
      <trkpt lat="43.475956" lon="1.505061">
        <ele>275.2</ele>
        <time>2014-02-03T13:46:24Z</time>
      </trkpt>
      <trkpt lat="43.475971" lon="1.505209">
        <ele>275.0</ele>
        <time>2014-02-03T13:46:32Z</time>
      </trkpt>
      <trkpt lat="43.475975" lon="1.505351">
        <ele>275.1</ele>
        <time>2014-02-03T13:46:40Z</time>
      </trkpt>
      <trkpt lat="43.475972" lon="1.505502">
        <ele>275.1</ele>
        <time>2014-02-03T13:46:48Z</time>
      </trkpt>
      <trkpt lat="43.475964" lon="1.505638">
        <ele>275.5</ele>
        <time>2014-02-03T13:46:55Z</time>
      </trkpt>
      <trkpt lat="43.475948" lon="1.505773">
        <ele>275.7</ele>
        <time>2014-02-03T13:47:02Z</time>
      </trkpt>
      <trkpt lat="43.475929" lon="1.505917">
        <ele>275.9</ele>
        <time>2014-02-03T13:47:10Z</time>
      </trkpt>
      <trkpt lat="43.475903" lon="1.506053">
        <ele>276.0</ele>
        <time>2014-02-03T13:47:18Z</time>
      </trkpt>
      <trkpt lat="43.475873" lon="1.506179">
        <ele>275.6</ele>
        <time>2014-02-03T13:47:26Z</time>
      </trkpt>
      <trkpt lat="43.475835" lon="1.506305">
        <ele>275.5</ele>
        <time>2014-02-03T13:47:34Z</time>
      </trkpt>
      <trkpt lat="43.475804" lon="1.506431">
        <ele>275.3</ele>
        <time>2014-02-03T13:47:42Z</time>
      </trkpt>
      <trkpt lat="43.475774" lon="1.506560">
        <ele>275.0</ele>
        <time>2014-02-03T13:47:50Z</time>
      </trkpt>
      <trkpt lat="43.475749" lon="1.506696">
        <ele>274.8</ele>
        <time>2014-02-03T13:47:59Z</time>
      </trkpt>
      <trkpt lat="43.475721" lon="1.506843">
        <ele>274.8</ele>
        <time>2014-02-03T13:48:08Z</time>
      </trkpt>
      <trkpt lat="43.475700" lon="1.506977">
        <ele>274.6</ele>
        <time>2014-02-03T13:48:16Z</time>
      </trkpt>
      <trkpt lat="43.475667" lon="1.507105">
        <ele>274.2</ele>
        <time>2014-02-03T13:48:24Z</time>
      </trkpt>
      <trkpt lat="43.475642" lon="1.507238">
        <ele>274.2</ele>
        <time>2014-02-03T13:48:32Z</time>
      </trkpt>
      <trkpt lat="43.475616" lon="1.507373">
        <ele>274.2</ele>
        <time>2014-02-03T13:48:40Z</time>
      </trkpt>
      <trkpt lat="43.475610" lon="1.507509">
        <ele>274.4</ele>
        <time>2014-02-03T13:48:48Z</time>
      </trkpt>
      <trkpt lat="43.475632" lon="1.507647">
        <ele>274.2</ele>
        <time>2014-02-03T13:48:56Z</time>
      </trkpt>
      <trkpt lat="43.475652" lon="1.507777">
        <ele>274.1</ele>
        <time>2014-02-03T13:49:04Z</time>
      </trkpt>
      <trkpt lat="43.475598" lon="1.507914">
        <ele>273.5</ele>
        <time>2014-02-03T13:49:14Z</time>
      </trkpt>
      <trkpt lat="43.475529" lon="1.508040">
        <ele>272.6</ele>
        <time>2014-02-03T13:49:26Z</time>
      </trkpt>
      <trkpt lat="43.475465" lon="1.508179">
        <ele>271.9</ele>
        <time>2014-02-03T13:49:43Z</time>
      </trkpt>
      <trkpt lat="43.475418" lon="1.508314">
        <ele>271.0</ele>
        <time>2014-02-03T13:49:57Z</time>
      </trkpt>
      <trkpt lat="43.475360" lon="1.508437">
        <ele>270.2</ele>
        <time>2014-02-03T13:50:10Z</time>
      </trkpt>
      <trkpt lat="43.475269" lon="1.508609">
        <ele>269.7</ele>
        <time>2014-02-03T13:50:24Z</time>
      </trkpt>
      <trkpt lat="43.475174" lon="1.508795">
        <ele>268.8</ele>
        <time>2014-02-03T13:50:34Z</time>
      </trkpt>
      <trkpt lat="43.475106" lon="1.508937">
        <ele>268.4</ele>
        <time>2014-02-03T13:50:43Z</time>
      </trkpt>
      <trkpt lat="43.475041" lon="1.509069">
        <ele>267.7</ele>
        <time>2014-02-03T13:50:53Z</time>
      </trkpt>
      <trkpt lat="43.474970" lon="1.509223">
        <ele>267.4</ele>
        <time>2014-02-03T13:51:02Z</time>
      </trkpt>
      <trkpt lat="43.474913" lon="1.509346">
        <ele>267.0</ele>
        <time>2014-02-03T13:51:11Z</time>
      </trkpt>
      <trkpt lat="43.474850" lon="1.509467">
        <ele>266.7</ele>
        <time>2014-02-03T13:51:23Z</time>
      </trkpt>
      <trkpt lat="43.474767" lon="1.509605">
        <ele>266.1</ele>
        <time>2014-02-03T13:51:33Z</time>
      </trkpt>
      <trkpt lat="43.474699" lon="1.509715">
        <ele>265.7</ele>
        <time>2014-02-03T13:51:43Z</time>
      </trkpt>
      <trkpt lat="43.474622" lon="1.509817">
        <ele>265.3</ele>
        <time>2014-02-03T13:51:53Z</time>
      </trkpt>
      <trkpt lat="43.474543" lon="1.509901">
        <ele>265.1</ele>
        <time>2014-02-03T13:52:17Z</time>
      </trkpt>
      <trkpt lat="43.474448" lon="1.509978">
        <ele>264.1</ele>
        <time>2014-02-03T13:52:43Z</time>
      </trkpt>
      <trkpt lat="43.474366" lon="1.510071">
        <ele>263.7</ele>
        <time>2014-02-03T13:52:58Z</time>
      </trkpt>
      <trkpt lat="43.474260" lon="1.510182">
        <ele>263.3</ele>
        <time>2014-02-03T13:53:10Z</time>
      </trkpt>
      <trkpt lat="43.474173" lon="1.510283">
        <ele>263.2</ele>
        <time>2014-02-03T13:53:19Z</time>
      </trkpt>
      <trkpt lat="43.474080" lon="1.510383">
        <ele>263.2</ele>
        <time>2014-02-03T13:53:28Z</time>
      </trkpt>
      <trkpt lat="43.473994" lon="1.510450">
        <ele>262.7</ele>
        <time>2014-02-03T13:54:16Z</time>
      </trkpt>
      <trkpt lat="43.473917" lon="1.510521">
        <ele>262.6</ele>
        <time>2014-02-03T13:54:24Z</time>
      </trkpt>
      <trkpt lat="43.473837" lon="1.510601">
        <ele>262.5</ele>
        <time>2014-02-03T13:54:32Z</time>
      </trkpt>
      <trkpt lat="43.473737" lon="1.510663">
        <ele>262.3</ele>
        <time>2014-02-03T13:54:41Z</time>
      </trkpt>
      <trkpt lat="43.473642" lon="1.510745">
        <ele>262.2</ele>
        <time>2014-02-03T13:54:49Z</time>
      </trkpt>
      <trkpt lat="43.473555" lon="1.510852">
        <ele>261.9</ele>
        <time>2014-02-03T13:54:57Z</time>
      </trkpt>
      <trkpt lat="43.473471" lon="1.510921">
        <ele>262.1</ele>
        <time>2014-02-03T13:55:05Z</time>
      </trkpt>
      <trkpt lat="43.473391" lon="1.510988">
        <ele>262.1</ele>
        <time>2014-02-03T13:55:15Z</time>
      </trkpt>
      <trkpt lat="43.473319" lon="1.511026">
        <ele>261.8</ele>
        <time>2014-02-03T13:56:29Z</time>
      </trkpt>
      <trkpt lat="43.473225" lon="1.511101">
        <ele>262.2</ele>
        <time>2014-02-03T13:56:38Z</time>
      </trkpt>
      <trkpt lat="43.473145" lon="1.511187">
        <ele>262.1</ele>
        <time>2014-02-03T13:56:46Z</time>
      </trkpt>
      <trkpt lat="43.473059" lon="1.511297">
        <ele>262.2</ele>
        <time>2014-02-03T13:56:55Z</time>
      </trkpt>
      <trkpt lat="43.472968" lon="1.511371">
        <ele>262.1</ele>
        <time>2014-02-03T13:57:04Z</time>
      </trkpt>
      <trkpt lat="43.472899" lon="1.511471">
        <ele>262.0</ele>
        <time>2014-02-03T13:57:15Z</time>
      </trkpt>
      <trkpt lat="43.472810" lon="1.511549">
        <ele>262.0</ele>
        <time>2014-02-03T13:57:24Z</time>
      </trkpt>
      <trkpt lat="43.472719" lon="1.511594">
        <ele>262.5</ele>
        <time>2014-02-03T13:58:24Z</time>
      </trkpt>
      <trkpt lat="43.472628" lon="1.511676">
        <ele>262.5</ele>
        <time>2014-02-03T13:58:33Z</time>
      </trkpt>
      <trkpt lat="43.472550" lon="1.511754">
        <ele>262.6</ele>
        <time>2014-02-03T13:58:41Z</time>
      </trkpt>
      <trkpt lat="43.472466" lon="1.511843">
        <ele>262.5</ele>
        <time>2014-02-03T13:58:50Z</time>
      </trkpt>
      <trkpt lat="43.472378" lon="1.511925">
        <ele>262.6</ele>
        <time>2014-02-03T13:59:00Z</time>
      </trkpt>
      <trkpt lat="43.472295" lon="1.512015">
        <ele>262.9</ele>
        <time>2014-02-03T13:59:10Z</time>
      </trkpt>
      <trkpt lat="43.472198" lon="1.512097">
        <ele>262.9</ele>
        <time>2014-02-03T13:59:19Z</time>
      </trkpt>
      <trkpt lat="43.472100" lon="1.512183">
        <ele>263.0</ele>
        <time>2014-02-03T13:59:28Z</time>
      </trkpt>
      <trkpt lat="43.471994" lon="1.512268">
        <ele>262.8</ele>
        <time>2014-02-03T13:59:37Z</time>
      </trkpt>
      <trkpt lat="43.471918" lon="1.512304">
        <ele>262.4</ele>
        <time>2014-02-03T14:00:29Z</time>
      </trkpt>
      <trkpt lat="43.471839" lon="1.512389">
        <ele>262.5</ele>
        <time>2014-02-03T14:00:38Z</time>
      </trkpt>
      <trkpt lat="43.471748" lon="1.512464">
        <ele>262.6</ele>
        <time>2014-02-03T14:00:48Z</time>
      </trkpt>
      <trkpt lat="43.471648" lon="1.512552">
        <ele>262.3</ele>
        <time>2014-02-03T14:00:59Z</time>
      </trkpt>
      <trkpt lat="43.471564" lon="1.512688">
        <ele>262.4</ele>
        <time>2014-02-03T14:01:10Z</time>
      </trkpt>
      <trkpt lat="43.471482" lon="1.512827">
        <ele>262.2</ele>
        <time>2014-02-03T14:01:20Z</time>
      </trkpt>
      <trkpt lat="43.471422" lon="1.512961">
        <ele>262.4</ele>
        <time>2014-02-03T14:01:29Z</time>
      </trkpt>
      <trkpt lat="43.471371" lon="1.513091">
        <ele>262.2</ele>
        <time>2014-02-03T14:01:38Z</time>
      </trkpt>
      <trkpt lat="43.471300" lon="1.513203">
        <ele>261.7</ele>
        <time>2014-02-03T14:02:34Z</time>
      </trkpt>
      <trkpt lat="43.471249" lon="1.513345">
        <ele>261.3</ele>
        <time>2014-02-03T14:02:48Z</time>
      </trkpt>
      <trkpt lat="43.471202" lon="1.513504">
        <ele>261.3</ele>
        <time>2014-02-03T14:03:00Z</time>
      </trkpt>
      <trkpt lat="43.471131" lon="1.513686">
        <ele>261.3</ele>
        <time>2014-02-03T14:03:15Z</time>
      </trkpt>
      <trkpt lat="43.471061" lon="1.513853">
        <ele>261.2</ele>
        <time>2014-02-03T14:03:29Z</time>
      </trkpt>
      <trkpt lat="43.470966" lon="1.514061">
        <ele>260.5</ele>
        <time>2014-02-03T14:03:42Z</time>
      </trkpt>
      <trkpt lat="43.470908" lon="1.514225">
        <ele>260.3</ele>
        <time>2014-02-03T14:03:56Z</time>
      </trkpt>
      <trkpt lat="43.470823" lon="1.514419">
        <ele>260.4</ele>
        <time>2014-02-03T14:04:11Z</time>
      </trkpt>
      <trkpt lat="43.470719" lon="1.514641">
        <ele>260.0</ele>
        <time>2014-02-03T14:04:23Z</time>
      </trkpt>
      <trkpt lat="43.470641" lon="1.514820">
        <ele>259.4</ele>
        <time>2014-02-03T14:04:36Z</time>
      </trkpt>
      <trkpt lat="43.470577" lon="1.514965">
        <ele>258.9</ele>
        <time>2014-02-03T14:04:48Z</time>
      </trkpt>
      <trkpt lat="43.470503" lon="1.515118">
        <ele>259.0</ele>
        <time>2014-02-03T14:05:05Z</time>
      </trkpt>
      <trkpt lat="43.470419" lon="1.515258">
        <ele>257.7</ele>
        <time>2014-02-03T14:05:17Z</time>
      </trkpt>
      <trkpt lat="43.470333" lon="1.515392">
        <ele>257.1</ele>
        <time>2014-02-03T14:05:29Z</time>
      </trkpt>
      <trkpt lat="43.470251" lon="1.515514">
        <ele>256.3</ele>
        <time>2014-02-03T14:05:39Z</time>
      </trkpt>
      <trkpt lat="43.470152" lon="1.515586">
        <ele>255.4</ele>
        <time>2014-02-03T14:05:50Z</time>
      </trkpt>
      <trkpt lat="43.470046" lon="1.515650">
        <ele>254.7</ele>
        <time>2014-02-03T14:06:02Z</time>
      </trkpt>
      <trkpt lat="43.469931" lon="1.515697">
        <ele>254.1</ele>
        <time>2014-02-03T14:06:13Z</time>
      </trkpt>
      <trkpt lat="43.469820" lon="1.515722">
        <ele>253.5</ele>
        <time>2014-02-03T14:06:23Z</time>
      </trkpt>
      <trkpt lat="43.469752" lon="1.515684">
        <ele>253.1</ele>
        <time>2014-02-03T14:07:53Z</time>
      </trkpt>
      <trkpt lat="43.469656" lon="1.515721">
        <ele>252.7</ele>
        <time>2014-02-03T14:08:04Z</time>
      </trkpt>
      <trkpt lat="43.469562" lon="1.515723">
        <ele>252.4</ele>
        <time>2014-02-03T14:08:12Z</time>
      </trkpt>
      <trkpt lat="43.469459" lon="1.515714">
        <ele>252.0</ele>
        <time>2014-02-03T14:08:20Z</time>
      </trkpt>
      <trkpt lat="43.469361" lon="1.515698">
        <ele>251.7</ele>
        <time>2014-02-03T14:08:28Z</time>
      </trkpt>
      <trkpt lat="43.469271" lon="1.515675">
        <ele>251.6</ele>
        <time>2014-02-03T14:08:35Z</time>
      </trkpt>
      <trkpt lat="43.469181" lon="1.515625">
        <ele>251.6</ele>
        <time>2014-02-03T14:08:42Z</time>
      </trkpt>
      <trkpt lat="43.469096" lon="1.515586">
        <ele>251.8</ele>
        <time>2014-02-03T14:08:49Z</time>
      </trkpt>
      <trkpt lat="43.469077" lon="1.515588">
        <ele>253.2</ele>
        <time>2014-02-03T14:09:10Z</time>
      </trkpt>
      <trkpt lat="43.468980" lon="1.515537">
        <ele>252.7</ele>
        <time>2014-02-03T14:09:18Z</time>
      </trkpt>
      <trkpt lat="43.468896" lon="1.515497">
        <ele>252.6</ele>
        <time>2014-02-03T14:09:25Z</time>
      </trkpt>
      <trkpt lat="43.468802" lon="1.515460">
        <ele>252.9</ele>
        <time>2014-02-03T14:09:33Z</time>
      </trkpt>
      <trkpt lat="43.468710" lon="1.515423">
        <ele>253.1</ele>
        <time>2014-02-03T14:09:41Z</time>
      </trkpt>
      <trkpt lat="43.468613" lon="1.515404">
        <ele>253.1</ele>
        <time>2014-02-03T14:09:49Z</time>
      </trkpt>
      <trkpt lat="43.468515" lon="1.515370">
        <ele>253.0</ele>
        <time>2014-02-03T14:09:57Z</time>
      </trkpt>
      <trkpt lat="43.468416" lon="1.515344">
        <ele>252.6</ele>
        <time>2014-02-03T14:10:05Z</time>
      </trkpt>
      <trkpt lat="43.468319" lon="1.515323">
        <ele>252.3</ele>
        <time>2014-02-03T14:10:13Z</time>
      </trkpt>
      <trkpt lat="43.468227" lon="1.515304">
        <ele>252.0</ele>
        <time>2014-02-03T14:10:21Z</time>
      </trkpt>
      <trkpt lat="43.468120" lon="1.515309">
        <ele>251.2</ele>
        <time>2014-02-03T14:10:29Z</time>
      </trkpt>
      <trkpt lat="43.468014" lon="1.515345">
        <ele>250.6</ele>
        <time>2014-02-03T14:10:41Z</time>
      </trkpt>
      <trkpt lat="43.467913" lon="1.515384">
        <ele>250.2</ele>
        <time>2014-02-03T14:10:50Z</time>
      </trkpt>
      <trkpt lat="43.467827" lon="1.515465">
        <ele>249.8</ele>
        <time>2014-02-03T14:10:58Z</time>
      </trkpt>
      <trkpt lat="43.467758" lon="1.515561">
        <ele>249.6</ele>
        <time>2014-02-03T14:11:06Z</time>
      </trkpt>
      <trkpt lat="43.467668" lon="1.515654">
        <ele>249.3</ele>
        <time>2014-02-03T14:11:15Z</time>
      </trkpt>
      <trkpt lat="43.467590" lon="1.515736">
        <ele>248.2</ele>
        <time>2014-02-03T14:11:23Z</time>
      </trkpt>
      <trkpt lat="43.467521" lon="1.515830">
        <ele>247.5</ele>
        <time>2014-02-03T14:11:31Z</time>
      </trkpt>
      <trkpt lat="43.467442" lon="1.515928">
        <ele>247.4</ele>
        <time>2014-02-03T14:11:39Z</time>
      </trkpt>
      <trkpt lat="43.467344" lon="1.516043">
        <ele>247.6</ele>
        <time>2014-02-03T14:11:47Z</time>
      </trkpt>
      <trkpt lat="43.467291" lon="1.516134">
        <ele>247.2</ele>
        <time>2014-02-03T14:11:54Z</time>
      </trkpt>
      <trkpt lat="43.467224" lon="1.516214">
        <ele>247.4</ele>
        <time>2014-02-03T14:12:01Z</time>
      </trkpt>
      <trkpt lat="43.467160" lon="1.516312">
        <ele>246.9</ele>
        <time>2014-02-03T14:12:08Z</time>
      </trkpt>
      <trkpt lat="43.467094" lon="1.516398">
        <ele>246.4</ele>
        <time>2014-02-03T14:12:16Z</time>
      </trkpt>
      <trkpt lat="43.467028" lon="1.516484">
        <ele>246.0</ele>
        <time>2014-02-03T14:12:24Z</time>
      </trkpt>
      <trkpt lat="43.466957" lon="1.516586">
        <ele>245.8</ele>
        <time>2014-02-03T14:12:32Z</time>
      </trkpt>
      <trkpt lat="43.466892" lon="1.516680">
        <ele>245.5</ele>
        <time>2014-02-03T14:12:39Z</time>
      </trkpt>
      <trkpt lat="43.466825" lon="1.516764">
        <ele>245.0</ele>
        <time>2014-02-03T14:12:48Z</time>
      </trkpt>
      <trkpt lat="43.466761" lon="1.516877">
        <ele>244.5</ele>
        <time>2014-02-03T14:13:46Z</time>
      </trkpt>
      <trkpt lat="43.466699" lon="1.516970">
        <ele>244.3</ele>
        <time>2014-02-03T14:13:53Z</time>
      </trkpt>
      <trkpt lat="43.466621" lon="1.517062">
        <ele>244.2</ele>
        <time>2014-02-03T14:14:00Z</time>
      </trkpt>
      <trkpt lat="43.466549" lon="1.517159">
        <ele>244.1</ele>
        <time>2014-02-03T14:14:07Z</time>
      </trkpt>
      <trkpt lat="43.466494" lon="1.517259">
        <ele>244.1</ele>
        <time>2014-02-03T14:14:15Z</time>
        <name>Vassal</name>
      </trkpt>
      <trkpt lat="43.466420" lon="1.517349">
        <ele>244.5</ele>
        <time>2014-02-03T14:14:28Z</time>
      </trkpt>
      <trkpt lat="43.466334" lon="1.517415">
        <ele>244.6</ele>
        <time>2014-02-03T14:14:36Z</time>
      </trkpt>
      <trkpt lat="43.466237" lon="1.517513">
        <ele>245.3</ele>
        <time>2014-02-03T14:14:49Z</time>
      </trkpt>
      <trkpt lat="43.466154" lon="1.517619">
        <ele>245.3</ele>
        <time>2014-02-03T14:14:57Z</time>
      </trkpt>
      <trkpt lat="43.466108" lon="1.517727">
        <ele>245.6</ele>
        <time>2014-02-03T14:15:05Z</time>
      </trkpt>
      <trkpt lat="43.466080" lon="1.517847">
        <ele>246.2</ele>
        <time>2014-02-03T14:15:12Z</time>
      </trkpt>
      <trkpt lat="43.466049" lon="1.517989">
        <ele>246.6</ele>
        <time>2014-02-03T14:15:20Z</time>
      </trkpt>
      <trkpt lat="43.466020" lon="1.518116">
        <ele>247.3</ele>
        <time>2014-02-03T14:15:26Z</time>
      </trkpt>
      <trkpt lat="43.466001" lon="1.518245">
        <ele>247.8</ele>
        <time>2014-02-03T14:15:33Z</time>
      </trkpt>
      <trkpt lat="43.465969" lon="1.518376">
        <ele>248.2</ele>
        <time>2014-02-03T14:15:40Z</time>
      </trkpt>
      <trkpt lat="43.465930" lon="1.518526">
        <ele>248.6</ele>
        <time>2014-02-03T14:15:47Z</time>
      </trkpt>
      <trkpt lat="43.465922" lon="1.518656">
        <ele>248.9</ele>
        <time>2014-02-03T14:15:54Z</time>
      </trkpt>
      <trkpt lat="43.465910" lon="1.518762">
        <ele>249.2</ele>
        <time>2014-02-03T14:16:00Z</time>
      </trkpt>
      <trkpt lat="43.465889" lon="1.518884">
        <ele>249.4</ele>
        <time>2014-02-03T14:16:06Z</time>
      </trkpt>
      <trkpt lat="43.465866" lon="1.519009">
        <ele>249.7</ele>
        <time>2014-02-03T14:16:13Z</time>
      </trkpt>
      <trkpt lat="43.465822" lon="1.519138">
        <ele>250.5</ele>
        <time>2014-02-03T14:16:20Z</time>
      </trkpt>
      <trkpt lat="43.465795" lon="1.519258">
        <ele>250.7</ele>
        <time>2014-02-03T14:16:27Z</time>
      </trkpt>
      <trkpt lat="43.465768" lon="1.519385">
        <ele>250.9</ele>
        <time>2014-02-03T14:16:34Z</time>
      </trkpt>
      <trkpt lat="43.465737" lon="1.519526">
        <ele>251.8</ele>
        <time>2014-02-03T14:16:42Z</time>
      </trkpt>
      <trkpt lat="43.465729" lon="1.519662">
        <ele>252.5</ele>
        <time>2014-02-03T14:16:50Z</time>
      </trkpt>
      <trkpt lat="43.465713" lon="1.519773">
        <ele>253.0</ele>
        <time>2014-02-03T14:16:59Z</time>
      </trkpt>
      <trkpt lat="43.465683" lon="1.519913">
        <ele>252.8</ele>
        <time>2014-02-03T14:17:09Z</time>
      </trkpt>
      <trkpt lat="43.465698" lon="1.520050">
        <ele>252.6</ele>
        <time>2014-02-03T14:17:18Z</time>
      </trkpt>
      <trkpt lat="43.465752" lon="1.520166">
        <ele>252.4</ele>
        <time>2014-02-03T14:17:25Z</time>
      </trkpt>
      <trkpt lat="43.465808" lon="1.520274">
        <ele>252.5</ele>
        <time>2014-02-03T14:17:32Z</time>
      </trkpt>
      <trkpt lat="43.465855" lon="1.520410">
        <ele>252.7</ele>
        <time>2014-02-03T14:17:41Z</time>
      </trkpt>
      <trkpt lat="43.465892" lon="1.520545">
        <ele>252.9</ele>
        <time>2014-02-03T14:17:49Z</time>
      </trkpt>
      <trkpt lat="43.465923" lon="1.520669">
        <ele>252.8</ele>
        <time>2014-02-03T14:17:58Z</time>
      </trkpt>
      <trkpt lat="43.465988" lon="1.520795">
        <ele>252.9</ele>
        <time>2014-02-03T14:18:06Z</time>
      </trkpt>
      <trkpt lat="43.466042" lon="1.520905">
        <ele>252.9</ele>
        <time>2014-02-03T14:18:21Z</time>
      </trkpt>
      <trkpt lat="43.466033" lon="1.521053">
        <ele>252.1</ele>
        <time>2014-02-03T14:18:34Z</time>
      </trkpt>
      <trkpt lat="43.466019" lon="1.521185">
        <ele>251.3</ele>
        <time>2014-02-03T14:18:42Z</time>
      </trkpt>
      <trkpt lat="43.466011" lon="1.521332">
        <ele>250.3</ele>
        <time>2014-02-03T14:18:52Z</time>
      </trkpt>
      <trkpt lat="43.465995" lon="1.521457">
        <ele>248.9</ele>
        <time>2014-02-03T14:19:01Z</time>
      </trkpt>
      <trkpt lat="43.465970" lon="1.521586">
        <ele>247.0</ele>
        <time>2014-02-03T14:19:13Z</time>
      </trkpt>
      <trkpt lat="43.465940" lon="1.521760">
        <ele>245.9</ele>
        <time>2014-02-03T14:19:26Z</time>
      </trkpt>
      <trkpt lat="43.465898" lon="1.521902">
        <ele>244.6</ele>
        <time>2014-02-03T14:19:38Z</time>
      </trkpt>
      <trkpt lat="43.465870" lon="1.522056">
        <ele>243.3</ele>
        <time>2014-02-03T14:19:57Z</time>
      </trkpt>
      <trkpt lat="43.465833" lon="1.522227">
        <ele>242.1</ele>
        <time>2014-02-03T14:20:50Z</time>
      </trkpt>
      <trkpt lat="43.465799" lon="1.522367">
        <ele>241.4</ele>
        <time>2014-02-03T14:21:00Z</time>
      </trkpt>
      <trkpt lat="43.465775" lon="1.522535">
        <ele>239.9</ele>
        <time>2014-02-03T14:21:12Z</time>
      </trkpt>
      <trkpt lat="43.465754" lon="1.522701">
        <ele>238.2</ele>
        <time>2014-02-03T14:21:21Z</time>
      </trkpt>
      <trkpt lat="43.465740" lon="1.522852">
        <ele>237.4</ele>
        <time>2014-02-03T14:21:30Z</time>
      </trkpt>
      <trkpt lat="43.465732" lon="1.523022">
        <ele>236.8</ele>
        <time>2014-02-03T14:21:42Z</time>
      </trkpt>
      <trkpt lat="43.465717" lon="1.523171">
        <ele>236.1</ele>
        <time>2014-02-03T14:21:58Z</time>
      </trkpt>
      <trkpt lat="43.465684" lon="1.523291">
        <ele>236.3</ele>
        <time>2014-02-03T14:23:12Z</time>
      </trkpt>
      <trkpt lat="43.465651" lon="1.523433">
        <ele>235.8</ele>
        <time>2014-02-03T14:23:23Z</time>
      </trkpt>
      <trkpt lat="43.465621" lon="1.523573">
        <ele>235.4</ele>
        <time>2014-02-03T14:24:02Z</time>
      </trkpt>
      <trkpt lat="43.465592" lon="1.523739">
        <ele>235.3</ele>
        <time>2014-02-03T14:24:14Z</time>
      </trkpt>
      <trkpt lat="43.465571" lon="1.523931">
        <ele>236.0</ele>
        <time>2014-02-03T14:24:26Z</time>
      </trkpt>
      <trkpt lat="43.465536" lon="1.524086">
        <ele>236.8</ele>
        <time>2014-02-03T14:24:36Z</time>
      </trkpt>
      <trkpt lat="43.465502" lon="1.524241">
        <ele>238.4</ele>
        <time>2014-02-03T14:24:50Z</time>
      </trkpt>
      <trkpt lat="43.465431" lon="1.524326">
        <ele>237.9</ele>
        <time>2014-02-03T14:25:02Z</time>
      </trkpt>
      <trkpt lat="43.465343" lon="1.524405">
        <ele>236.0</ele>
        <time>2014-02-03T14:27:04Z</time>
      </trkpt>
      <trkpt lat="43.465264" lon="1.524513">
        <ele>233.5</ele>
        <time>2014-02-03T14:27:16Z</time>
      </trkpt>
      <trkpt lat="43.465189" lon="1.524602">
        <ele>232.0</ele>
        <time>2014-02-03T14:27:26Z</time>
      </trkpt>
      <trkpt lat="43.465106" lon="1.524693">
        <ele>230.5</ele>
        <time>2014-02-03T14:27:37Z</time>
      </trkpt>
      <trkpt lat="43.465027" lon="1.524789">
        <ele>228.8</ele>
        <time>2014-02-03T14:27:48Z</time>
      </trkpt>
      <trkpt lat="43.464922" lon="1.524885">
        <ele>226.8</ele>
        <time>2014-02-03T14:28:00Z</time>
      </trkpt>
      <trkpt lat="43.464851" lon="1.524987">
        <ele>225.4</ele>
        <time>2014-02-03T14:28:10Z</time>
      </trkpt>
      <trkpt lat="43.464774" lon="1.525083">
        <ele>224.4</ele>
        <time>2014-02-03T14:28:20Z</time>
      </trkpt>
      <trkpt lat="43.464690" lon="1.525170">
        <ele>222.9</ele>
        <time>2014-02-03T14:28:30Z</time>
      </trkpt>
      <trkpt lat="43.464596" lon="1.525245">
        <ele>221.6</ele>
        <time>2014-02-03T14:28:41Z</time>
      </trkpt>
      <trkpt lat="43.464503" lon="1.525332">
        <ele>219.9</ele>
        <time>2014-02-03T14:29:01Z</time>
      </trkpt>
      <trkpt lat="43.464398" lon="1.525415">
        <ele>219.4</ele>
        <time>2014-02-03T14:29:14Z</time>
      </trkpt>
      <trkpt lat="43.464318" lon="1.525479">
        <ele>218.6</ele>
        <time>2014-02-03T14:29:24Z</time>
      </trkpt>
      <trkpt lat="43.464232" lon="1.525558">
        <ele>216.4</ele>
        <time>2014-02-03T14:29:36Z</time>
      </trkpt>
      <trkpt lat="43.464135" lon="1.525670">
        <ele>214.4</ele>
        <time>2014-02-03T14:29:47Z</time>
      </trkpt>
      <trkpt lat="43.464057" lon="1.525774">
        <ele>212.5</ele>
        <time>2014-02-03T14:29:58Z</time>
      </trkpt>
      <trkpt lat="43.463970" lon="1.525885">
        <ele>210.9</ele>
        <time>2014-02-03T14:30:09Z</time>
      </trkpt>
      <trkpt lat="43.463884" lon="1.525982">
        <ele>209.1</ele>
        <time>2014-02-03T14:30:20Z</time>
      </trkpt>
      <trkpt lat="43.463803" lon="1.526086">
        <ele>207.3</ele>
        <time>2014-02-03T14:30:32Z</time>
      </trkpt>
      <trkpt lat="43.463735" lon="1.526214">
        <ele>205.4</ele>
        <time>2014-02-03T14:30:44Z</time>
      </trkpt>
      <trkpt lat="43.463661" lon="1.526356">
        <ele>203.0</ele>
        <time>2014-02-03T14:30:58Z</time>
      </trkpt>
      <trkpt lat="43.463588" lon="1.526500">
        <ele>200.6</ele>
        <time>2014-02-03T14:31:12Z</time>
      </trkpt>
      <trkpt lat="43.463529" lon="1.526653">
        <ele>198.5</ele>
        <time>2014-02-03T14:31:25Z</time>
      </trkpt>
      <trkpt lat="43.463462" lon="1.526837">
        <ele>196.0</ele>
        <time>2014-02-03T14:31:39Z</time>
      </trkpt>
      <trkpt lat="43.463401" lon="1.527012">
        <ele>193.2</ele>
        <time>2014-02-03T14:31:54Z</time>
      </trkpt>
      <trkpt lat="43.463362" lon="1.527188">
        <ele>191.0</ele>
        <time>2014-02-03T14:32:08Z</time>
      </trkpt>
      <trkpt lat="43.463310" lon="1.527388">
        <ele>189.1</ele>
        <time>2014-02-03T14:32:22Z</time>
      </trkpt>
      <trkpt lat="43.463243" lon="1.527588">
        <ele>187.6</ele>
        <time>2014-02-03T14:32:37Z</time>
      </trkpt>
      <trkpt lat="43.463195" lon="1.527768">
        <ele>186.6</ele>
        <time>2014-02-03T14:32:47Z</time>
      </trkpt>
      <trkpt lat="43.463144" lon="1.527923">
        <ele>185.1</ele>
        <time>2014-02-03T14:32:58Z</time>
      </trkpt>
      <trkpt lat="43.463062" lon="1.528025">
        <ele>184.4</ele>
        <time>2014-02-03T14:33:10Z</time>
        <name>Bois de la Tuilerie</name>
      </trkpt>
      <trkpt lat="43.462981" lon="1.527956">
        <ele>184.5</ele>
        <time>2014-02-03T14:33:50Z</time>
      </trkpt>
      <trkpt lat="43.462961" lon="1.527845">
        <ele>184.1</ele>
        <time>2014-02-03T14:34:48Z</time>
      </trkpt>
      <trkpt lat="43.462925" lon="1.527692">
        <ele>184.0</ele>
        <time>2014-02-03T14:35:09Z</time>
      </trkpt>
      <trkpt lat="43.462882" lon="1.527540">
        <ele>184.4</ele>
        <time>2014-02-03T14:35:24Z</time>
      </trkpt>
      <trkpt lat="43.462834" lon="1.527402">
        <ele>185.1</ele>
        <time>2014-02-03T14:35:43Z</time>
      </trkpt>
      <trkpt lat="43.462756" lon="1.527262">
        <ele>186.9</ele>
        <time>2014-02-03T14:35:59Z</time>
      </trkpt>
      <trkpt lat="43.462671" lon="1.527156">
        <ele>189.2</ele>
        <time>2014-02-03T14:36:18Z</time>
      </trkpt>
      <trkpt lat="43.462556" lon="1.527097">
        <ele>191.1</ele>
        <time>2014-02-03T14:36:34Z</time>
      </trkpt>
      <trkpt lat="43.462445" lon="1.527031">
        <ele>192.5</ele>
        <time>2014-02-03T14:36:48Z</time>
      </trkpt>
      <trkpt lat="43.462346" lon="1.526957">
        <ele>194.4</ele>
        <time>2014-02-03T14:37:02Z</time>
      </trkpt>
      <trkpt lat="43.462230" lon="1.526913">
        <ele>195.9</ele>
        <time>2014-02-03T14:37:16Z</time>
      </trkpt>
      <trkpt lat="43.462119" lon="1.526860">
        <ele>197.1</ele>
        <time>2014-02-03T14:37:28Z</time>
      </trkpt>
      <trkpt lat="43.462003" lon="1.526809">
        <ele>198.4</ele>
        <time>2014-02-03T14:37:41Z</time>
      </trkpt>
      <trkpt lat="43.461903" lon="1.526761">
        <ele>199.6</ele>
        <time>2014-02-03T14:37:53Z</time>
      </trkpt>
      <trkpt lat="43.461797" lon="1.526725">
        <ele>200.6</ele>
        <time>2014-02-03T14:38:05Z</time>
      </trkpt>
      <trkpt lat="43.461672" lon="1.526711">
        <ele>201.6</ele>
        <time>2014-02-03T14:38:16Z</time>
      </trkpt>
      <trkpt lat="43.461551" lon="1.526700">
        <ele>202.5</ele>
        <time>2014-02-03T14:38:26Z</time>
      </trkpt>
      <trkpt lat="43.461455" lon="1.526661">
        <ele>203.3</ele>
        <time>2014-02-03T14:38:38Z</time>
      </trkpt>
      <trkpt lat="43.461359" lon="1.526608">
        <ele>204.3</ele>
        <time>2014-02-03T14:38:49Z</time>
      </trkpt>
      <trkpt lat="43.461257" lon="1.526568">
        <ele>205.6</ele>
        <time>2014-02-03T14:39:00Z</time>
      </trkpt>
      <trkpt lat="43.461156" lon="1.526537">
        <ele>207.4</ele>
        <time>2014-02-03T14:39:12Z</time>
      </trkpt>
      <trkpt lat="43.461053" lon="1.526504">
        <ele>208.9</ele>
        <time>2014-02-03T14:39:24Z</time>
      </trkpt>
      <trkpt lat="43.460957" lon="1.526474">
        <ele>210.9</ele>
        <time>2014-02-03T14:39:36Z</time>
      </trkpt>
      <trkpt lat="43.460859" lon="1.526432">
        <ele>212.9</ele>
        <time>2014-02-03T14:39:50Z</time>
      </trkpt>
      <trkpt lat="43.460761" lon="1.526389">
        <ele>215.1</ele>
        <time>2014-02-03T14:40:04Z</time>
      </trkpt>
      <trkpt lat="43.460658" lon="1.526359">
        <ele>217.6</ele>
        <time>2014-02-03T14:40:18Z</time>
      </trkpt>
      <trkpt lat="43.460549" lon="1.526322">
        <ele>220.4</ele>
        <time>2014-02-03T14:40:35Z</time>
      </trkpt>
      <trkpt lat="43.460446" lon="1.526279">
        <ele>222.7</ele>
        <time>2014-02-03T14:40:51Z</time>
      </trkpt>
      <trkpt lat="43.460346" lon="1.526245">
        <ele>224.1</ele>
        <time>2014-02-03T14:41:04Z</time>
      </trkpt>
      <trkpt lat="43.460233" lon="1.526224">
        <ele>225.2</ele>
        <time>2014-02-03T14:41:16Z</time>
      </trkpt>
      <trkpt lat="43.460135" lon="1.526184">
        <ele>226.5</ele>
        <time>2014-02-03T14:41:28Z</time>
      </trkpt>
      <trkpt lat="43.460038" lon="1.526157">
        <ele>227.4</ele>
        <time>2014-02-03T14:41:39Z</time>
      </trkpt>
      <trkpt lat="43.460023" lon="1.526119">
        <ele>228.7</ele>
        <time>2014-02-03T14:42:33Z</time>
      </trkpt>
      <trkpt lat="43.460003" lon="1.526124">
        <ele>228.4</ele>
        <time>2014-02-03T14:42:56Z</time>
      </trkpt>
      <trkpt lat="43.459911" lon="1.526102">
        <ele>228.5</ele>
        <time>2014-02-03T14:43:06Z</time>
      </trkpt>
      <trkpt lat="43.459813" lon="1.526070">
        <ele>229.0</ele>
        <time>2014-02-03T14:43:15Z</time>
      </trkpt>
      <trkpt lat="43.459722" lon="1.526013">
        <ele>228.9</ele>
        <time>2014-02-03T14:43:24Z</time>
      </trkpt>
      <trkpt lat="43.459650" lon="1.525940">
        <ele>228.2</ele>
        <time>2014-02-03T14:43:33Z</time>
      </trkpt>
      <trkpt lat="43.459572" lon="1.525871">
        <ele>227.6</ele>
        <time>2014-02-03T14:43:42Z</time>
      </trkpt>
      <trkpt lat="43.459520" lon="1.525768">
        <ele>227.3</ele>
        <time>2014-02-03T14:43:55Z</time>
      </trkpt>
      <trkpt lat="43.459441" lon="1.525684">
        <ele>227.5</ele>
        <time>2014-02-03T14:44:16Z</time>
      </trkpt>
      <trkpt lat="43.459364" lon="1.525637">
        <ele>228.4</ele>
        <time>2014-02-03T14:44:45Z</time>
      </trkpt>
      <trkpt lat="43.459277" lon="1.525546">
        <ele>229.2</ele>
        <time>2014-02-03T14:44:58Z</time>
      </trkpt>
      <trkpt lat="43.459212" lon="1.525432">
        <ele>230.1</ele>
        <time>2014-02-03T14:45:11Z</time>
      </trkpt>
      <trkpt lat="43.459147" lon="1.525310">
        <ele>230.9</ele>
        <time>2014-02-03T14:45:23Z</time>
      </trkpt>
      <trkpt lat="43.459076" lon="1.525213">
        <ele>232.3</ele>
        <time>2014-02-03T14:45:36Z</time>
      </trkpt>
      <trkpt lat="43.459004" lon="1.525107">
        <ele>233.6</ele>
        <time>2014-02-03T14:45:49Z</time>
      </trkpt>
      <trkpt lat="43.458933" lon="1.525000">
        <ele>235.4</ele>
        <time>2014-02-03T14:46:02Z</time>
      </trkpt>
      <trkpt lat="43.458843" lon="1.524901">
        <ele>237.2</ele>
        <time>2014-02-03T14:46:15Z</time>
      </trkpt>
      <trkpt lat="43.458814" lon="1.524948">
        <ele>238.3</ele>
        <time>2014-02-03T14:46:30Z</time>
      </trkpt>
      <trkpt lat="43.458743" lon="1.524882">
        <ele>239.0</ele>
        <time>2014-02-03T14:46:44Z</time>
      </trkpt>
      <trkpt lat="43.458677" lon="1.524801">
        <ele>240.3</ele>
        <time>2014-02-03T14:46:56Z</time>
      </trkpt>
      <trkpt lat="43.458593" lon="1.524726">
        <ele>241.8</ele>
        <time>2014-02-03T14:47:08Z</time>
      </trkpt>
      <trkpt lat="43.458520" lon="1.524638">
        <ele>242.6</ele>
        <time>2014-02-03T14:47:18Z</time>
      </trkpt>
      <trkpt lat="43.458427" lon="1.524535">
        <ele>243.9</ele>
        <time>2014-02-03T14:47:30Z</time>
      </trkpt>
      <trkpt lat="43.458368" lon="1.524465">
        <ele>245.1</ele>
        <time>2014-02-03T14:47:41Z</time>
      </trkpt>
      <trkpt lat="43.458331" lon="1.524442">
        <ele>246.4</ele>
        <time>2014-02-03T14:49:09Z</time>
      </trkpt>
      <trkpt lat="43.458262" lon="1.524353">
        <ele>246.9</ele>
        <time>2014-02-03T14:49:19Z</time>
      </trkpt>
      <trkpt lat="43.458192" lon="1.524277">
        <ele>248.1</ele>
        <time>2014-02-03T14:49:29Z</time>
      </trkpt>
      <trkpt lat="43.458117" lon="1.524184">
        <ele>249.4</ele>
        <time>2014-02-03T14:49:39Z</time>
      </trkpt>
      <trkpt lat="43.458051" lon="1.524083">
        <ele>251.0</ele>
        <time>2014-02-03T14:49:49Z</time>
      </trkpt>
      <trkpt lat="43.457978" lon="1.523981">
        <ele>252.3</ele>
        <time>2014-02-03T14:50:00Z</time>
      </trkpt>
      <trkpt lat="43.457896" lon="1.523898">
        <ele>253.6</ele>
        <time>2014-02-03T14:50:10Z</time>
      </trkpt>
      <trkpt lat="43.457813" lon="1.523831">
        <ele>255.0</ele>
        <time>2014-02-03T14:50:20Z</time>
      </trkpt>
      <trkpt lat="43.457733" lon="1.523744">
        <ele>256.6</ele>
        <time>2014-02-03T14:50:29Z</time>
      </trkpt>
      <trkpt lat="43.457681" lon="1.523646">
        <ele>258.8</ele>
        <time>2014-02-03T14:50:41Z</time>
      </trkpt>
      <trkpt lat="43.457645" lon="1.523590">
        <ele>260.6</ele>
        <time>2014-02-03T14:50:58Z</time>
      </trkpt>
      <trkpt lat="43.457622" lon="1.523622">
        <ele>260.5</ele>
        <time>2014-02-03T14:51:36Z</time>
      </trkpt>
      <trkpt lat="43.457588" lon="1.523446">
        <ele>260.9</ele>
        <time>2014-02-03T14:51:46Z</time>
      </trkpt>
      <trkpt lat="43.457561" lon="1.523320">
        <ele>261.8</ele>
        <time>2014-02-03T14:51:57Z</time>
      </trkpt>
      <trkpt lat="43.457532" lon="1.523191">
        <ele>262.9</ele>
        <time>2014-02-03T14:52:07Z</time>
      </trkpt>
      <trkpt lat="43.457493" lon="1.523080">
        <ele>264.1</ele>
        <time>2014-02-03T14:52:18Z</time>
      </trkpt>
      <trkpt lat="43.457451" lon="1.522957">
        <ele>266.3</ele>
        <time>2014-02-03T14:52:30Z</time>
      </trkpt>
      <trkpt lat="43.457429" lon="1.522832">
        <ele>268.3</ele>
        <time>2014-02-03T14:52:46Z</time>
      </trkpt>
      <trkpt lat="43.457380" lon="1.522724">
        <ele>269.3</ele>
        <time>2014-02-03T14:53:16Z</time>
        <name>Montbrun-Lauragais</name>
      </trkpt>
      <trkpt lat="43.457411" lon="1.522655">
        <ele>270.3</ele>
        <time>2014-02-03T14:53:33Z</time>
      </trkpt>
      <trkpt lat="43.457428" lon="1.522633">
        <ele>270.0</ele>
        <time>2014-02-03T14:57:35Z</time>
      </trkpt>
      <trkpt lat="43.457438" lon="1.522532">
        <ele>270.0</ele>
        <time>2014-02-03T14:57:49Z</time>
      </trkpt>
      <trkpt lat="43.457473" lon="1.522496">
        <ele>269.7</ele>
        <time>2014-02-03T14:59:04Z</time>
      </trkpt>
      <trkpt lat="43.457496" lon="1.522381">
        <ele>269.4</ele>
        <time>2014-02-03T14:59:20Z</time>
      </trkpt>
      <trkpt lat="43.457532" lon="1.522261">
        <ele>269.1</ele>
        <time>2014-02-03T14:59:43Z</time>
      </trkpt>
      <trkpt lat="43.457559" lon="1.522141">
        <ele>268.7</ele>
        <time>2014-02-03T15:00:19Z</time>
      </trkpt>
      <trkpt lat="43.457586" lon="1.522000">
        <ele>268.2</ele>
        <time>2014-02-03T15:00:31Z</time>
      </trkpt>
      <trkpt lat="43.457597" lon="1.521853">
        <ele>268.0</ele>
        <time>2014-02-03T15:00:41Z</time>
      </trkpt>
      <trkpt lat="43.457628" lon="1.521716">
        <ele>267.9</ele>
        <time>2014-02-03T15:00:51Z</time>
      </trkpt>
      <trkpt lat="43.457661" lon="1.521580">
        <ele>267.7</ele>
        <time>2014-02-03T15:01:00Z</time>
      </trkpt>
      <trkpt lat="43.457698" lon="1.521454">
        <ele>267.5</ele>
        <time>2014-02-03T15:01:10Z</time>
      </trkpt>
      <trkpt lat="43.457733" lon="1.521327">
        <ele>267.3</ele>
        <time>2014-02-03T15:01:19Z</time>
      </trkpt>
      <trkpt lat="43.457777" lon="1.521183">
        <ele>267.1</ele>
        <time>2014-02-03T15:01:31Z</time>
      </trkpt>
      <trkpt lat="43.457834" lon="1.521040">
        <ele>267.1</ele>
        <time>2014-02-03T15:01:41Z</time>
      </trkpt>
      <trkpt lat="43.457908" lon="1.520912">
        <ele>267.2</ele>
        <time>2014-02-03T15:01:52Z</time>
      </trkpt>
      <trkpt lat="43.457990" lon="1.520816">
        <ele>267.3</ele>
        <time>2014-02-03T15:02:01Z</time>
      </trkpt>
      <trkpt lat="43.458068" lon="1.520732">
        <ele>267.5</ele>
        <time>2014-02-03T15:02:09Z</time>
      </trkpt>
      <trkpt lat="43.458168" lon="1.520638">
        <ele>267.8</ele>
        <time>2014-02-03T15:02:18Z</time>
      </trkpt>
      <trkpt lat="43.458202" lon="1.520504">
        <ele>268.0</ele>
        <time>2014-02-03T15:02:26Z</time>
      </trkpt>
      <trkpt lat="43.458264" lon="1.520400">
        <ele>268.2</ele>
        <time>2014-02-03T15:02:34Z</time>
      </trkpt>
      <trkpt lat="43.458345" lon="1.520311">
        <ele>268.9</ele>
        <time>2014-02-03T15:02:42Z</time>
      </trkpt>
      <trkpt lat="43.458379" lon="1.520187">
        <ele>269.2</ele>
        <time>2014-02-03T15:02:49Z</time>
      </trkpt>
      <trkpt lat="43.458435" lon="1.520064">
        <ele>269.9</ele>
        <time>2014-02-03T15:02:58Z</time>
      </trkpt>
      <trkpt lat="43.458503" lon="1.519951">
        <ele>270.5</ele>
        <time>2014-02-03T15:03:07Z</time>
      </trkpt>
      <trkpt lat="43.458566" lon="1.519820">
        <ele>271.1</ele>
        <time>2014-02-03T15:03:16Z</time>
      </trkpt>
      <trkpt lat="43.458637" lon="1.519686">
        <ele>271.4</ele>
        <time>2014-02-03T15:03:25Z</time>
      </trkpt>
      <trkpt lat="43.458693" lon="1.519550">
        <ele>271.7</ele>
        <time>2014-02-03T15:03:33Z</time>
      </trkpt>
      <trkpt lat="43.458733" lon="1.519425">
        <ele>272.5</ele>
        <time>2014-02-03T15:03:45Z</time>
      </trkpt>
      <trkpt lat="43.458720" lon="1.519313">
        <ele>272.5</ele>
        <time>2014-02-03T15:03:56Z</time>
      </trkpt>
      <trkpt lat="43.458726" lon="1.519214">
        <ele>273.1</ele>
        <time>2014-02-03T15:07:00Z</time>
      </trkpt>
      <trkpt lat="43.458824" lon="1.519221">
        <ele>273.3</ele>
        <time>2014-02-03T15:07:16Z</time>
      </trkpt>
      <trkpt lat="43.458929" lon="1.519184">
        <ele>272.5</ele>
        <time>2014-02-03T15:07:29Z</time>
      </trkpt>
      <trkpt lat="43.459011" lon="1.519117">
        <ele>271.2</ele>
        <time>2014-02-03T15:07:50Z</time>
      </trkpt>
      <trkpt lat="43.459124" lon="1.519065">
        <ele>270.2</ele>
        <time>2014-02-03T15:08:07Z</time>
      </trkpt>
      <trkpt lat="43.459234" lon="1.519027">
        <ele>268.7</ele>
        <time>2014-02-03T15:08:19Z</time>
      </trkpt>
      <trkpt lat="43.459338" lon="1.519021">
        <ele>267.0</ele>
        <time>2014-02-03T15:08:31Z</time>
      </trkpt>
      <trkpt lat="43.459447" lon="1.518962">
        <ele>265.0</ele>
        <time>2014-02-03T15:08:45Z</time>
      </trkpt>
      <trkpt lat="43.459565" lon="1.518882">
        <ele>263.3</ele>
        <time>2014-02-03T15:08:59Z</time>
      </trkpt>
      <trkpt lat="43.459680" lon="1.518826">
        <ele>261.3</ele>
        <time>2014-02-03T15:09:13Z</time>
      </trkpt>
      <trkpt lat="43.459819" lon="1.518769">
        <ele>259.1</ele>
        <time>2014-02-03T15:09:29Z</time>
      </trkpt>
      <trkpt lat="43.459958" lon="1.518751">
        <ele>257.9</ele>
        <time>2014-02-03T15:09:42Z</time>
      </trkpt>
      <trkpt lat="43.460107" lon="1.518715">
        <ele>256.3</ele>
        <time>2014-02-03T15:09:55Z</time>
      </trkpt>
      <trkpt lat="43.460230" lon="1.518683">
        <ele>254.8</ele>
        <time>2014-02-03T15:10:06Z</time>
      </trkpt>
      <trkpt lat="43.460341" lon="1.518661">
        <ele>253.0</ele>
        <time>2014-02-03T15:10:18Z</time>
      </trkpt>
      <trkpt lat="43.460461" lon="1.518652">
        <ele>251.5</ele>
        <time>2014-02-03T15:10:31Z</time>
      </trkpt>
      <trkpt lat="43.460570" lon="1.518652">
        <ele>249.9</ele>
        <time>2014-02-03T15:10:44Z</time>
      </trkpt>
      <trkpt lat="43.460698" lon="1.518650">
        <ele>248.3</ele>
        <time>2014-02-03T15:10:57Z</time>
      </trkpt>
      <trkpt lat="43.460795" lon="1.518638">
        <ele>247.1</ele>
        <time>2014-02-03T15:11:09Z</time>
      </trkpt>
      <trkpt lat="43.460903" lon="1.518628">
        <ele>246.3</ele>
        <time>2014-02-03T15:11:20Z</time>
      </trkpt>
      <trkpt lat="43.461002" lon="1.518615">
        <ele>245.7</ele>
        <time>2014-02-03T15:11:32Z</time>
      </trkpt>
      <trkpt lat="43.461102" lon="1.518614">
        <ele>245.2</ele>
        <time>2014-02-03T15:11:43Z</time>
      </trkpt>
      <trkpt lat="43.461204" lon="1.518630">
        <ele>244.7</ele>
        <time>2014-02-03T15:11:54Z</time>
      </trkpt>
      <trkpt lat="43.461301" lon="1.518631">
        <ele>244.6</ele>
        <time>2014-02-03T15:12:05Z</time>
      </trkpt>
      <trkpt lat="43.461416" lon="1.518634">
        <ele>244.0</ele>
        <time>2014-02-03T15:12:17Z</time>
      </trkpt>
      <trkpt lat="43.461520" lon="1.518649">
        <ele>243.9</ele>
        <time>2014-02-03T15:12:27Z</time>
      </trkpt>
      <trkpt lat="43.461619" lon="1.518659">
        <ele>244.1</ele>
        <time>2014-02-03T15:12:36Z</time>
      </trkpt>
      <trkpt lat="43.461718" lon="1.518671">
        <ele>243.3</ele>
        <time>2014-02-03T15:12:45Z</time>
      </trkpt>
      <trkpt lat="43.461817" lon="1.518683">
        <ele>243.2</ele>
        <time>2014-02-03T15:12:53Z</time>
      </trkpt>
      <trkpt lat="43.461916" lon="1.518693">
        <ele>243.1</ele>
        <time>2014-02-03T15:13:02Z</time>
      </trkpt>
      <trkpt lat="43.462008" lon="1.518706">
        <ele>242.8</ele>
        <time>2014-02-03T15:13:10Z</time>
      </trkpt>
      <trkpt lat="43.462099" lon="1.518717">
        <ele>242.8</ele>
        <time>2014-02-03T15:13:18Z</time>
      </trkpt>
      <trkpt lat="43.462197" lon="1.518728">
        <ele>242.8</ele>
        <time>2014-02-03T15:13:26Z</time>
      </trkpt>
      <trkpt lat="43.462293" lon="1.518753">
        <ele>242.8</ele>
        <time>2014-02-03T15:13:34Z</time>
      </trkpt>
      <trkpt lat="43.462381" lon="1.518780">
        <ele>243.0</ele>
        <time>2014-02-03T15:13:42Z</time>
      </trkpt>
      <trkpt lat="43.462478" lon="1.518796">
        <ele>243.0</ele>
        <time>2014-02-03T15:13:51Z</time>
      </trkpt>
      <trkpt lat="43.462571" lon="1.518819">
        <ele>243.1</ele>
        <time>2014-02-03T15:13:59Z</time>
      </trkpt>
      <trkpt lat="43.462668" lon="1.518838">
        <ele>243.4</ele>
        <time>2014-02-03T15:14:07Z</time>
      </trkpt>
      <trkpt lat="43.462760" lon="1.518865">
        <ele>244.0</ele>
        <time>2014-02-03T15:14:15Z</time>
      </trkpt>
      <trkpt lat="43.462855" lon="1.518901">
        <ele>244.4</ele>
        <time>2014-02-03T15:14:23Z</time>
      </trkpt>
      <trkpt lat="43.462946" lon="1.518923">
        <ele>245.0</ele>
        <time>2014-02-03T15:14:31Z</time>
      </trkpt>
      <trkpt lat="43.463047" lon="1.518941">
        <ele>245.6</ele>
        <time>2014-02-03T15:14:39Z</time>
      </trkpt>
      <trkpt lat="43.463138" lon="1.518959">
        <ele>246.3</ele>
        <time>2014-02-03T15:14:48Z</time>
      </trkpt>
      <trkpt lat="43.463238" lon="1.518966">
        <ele>246.4</ele>
        <time>2014-02-03T15:14:57Z</time>
      </trkpt>
      <trkpt lat="43.463346" lon="1.518965">
        <ele>246.2</ele>
        <time>2014-02-03T15:15:07Z</time>
      </trkpt>
      <trkpt lat="43.463458" lon="1.518960">
        <ele>246.2</ele>
        <time>2014-02-03T15:15:17Z</time>
      </trkpt>
      <trkpt lat="43.463561" lon="1.518954">
        <ele>246.2</ele>
        <time>2014-02-03T15:15:27Z</time>
      </trkpt>
      <trkpt lat="43.463673" lon="1.518915">
        <ele>246.1</ele>
        <time>2014-02-03T15:15:37Z</time>
      </trkpt>
      <trkpt lat="43.463784" lon="1.518888">
        <ele>246.5</ele>
        <time>2014-02-03T15:15:47Z</time>
      </trkpt>
      <trkpt lat="43.463884" lon="1.518846">
        <ele>246.6</ele>
        <time>2014-02-03T15:15:56Z</time>
      </trkpt>
      <trkpt lat="43.463996" lon="1.518839">
        <ele>247.0</ele>
        <time>2014-02-03T15:16:11Z</time>
      </trkpt>
      <trkpt lat="43.464116" lon="1.518797">
        <ele>246.9</ele>
        <time>2014-02-03T15:16:20Z</time>
      </trkpt>
      <trkpt lat="43.464216" lon="1.518796">
        <ele>246.9</ele>
        <time>2014-02-03T15:16:28Z</time>
      </trkpt>
      <trkpt lat="43.464306" lon="1.518836">
        <ele>247.2</ele>
        <time>2014-02-03T15:16:36Z</time>
      </trkpt>
      <trkpt lat="43.464402" lon="1.518896">
        <ele>247.5</ele>
        <time>2014-02-03T15:16:45Z</time>
      </trkpt>
      <trkpt lat="43.464484" lon="1.518972">
        <ele>247.5</ele>
        <time>2014-02-03T15:16:53Z</time>
      </trkpt>
      <trkpt lat="43.464562" lon="1.519050">
        <ele>247.3</ele>
        <time>2014-02-03T15:17:02Z</time>
      </trkpt>
      <trkpt lat="43.464640" lon="1.519122">
        <ele>247.8</ele>
        <time>2014-02-03T15:17:10Z</time>
      </trkpt>
      <trkpt lat="43.464702" lon="1.519212">
        <ele>247.9</ele>
        <time>2014-02-03T15:17:17Z</time>
      </trkpt>
      <trkpt lat="43.464790" lon="1.519274">
        <ele>248.2</ele>
        <time>2014-02-03T15:17:24Z</time>
      </trkpt>
      <trkpt lat="43.464875" lon="1.519353">
        <ele>248.3</ele>
        <time>2014-02-03T15:17:32Z</time>
      </trkpt>
      <trkpt lat="43.464957" lon="1.519415">
        <ele>248.2</ele>
        <time>2014-02-03T15:17:40Z</time>
      </trkpt>
      <trkpt lat="43.465051" lon="1.519441">
        <ele>248.2</ele>
        <time>2014-02-03T15:17:48Z</time>
      </trkpt>
      <trkpt lat="43.465122" lon="1.519536">
        <ele>248.4</ele>
        <time>2014-02-03T15:17:57Z</time>
      </trkpt>
      <trkpt lat="43.465200" lon="1.519613">
        <ele>248.6</ele>
        <time>2014-02-03T15:18:05Z</time>
      </trkpt>
      <trkpt lat="43.465274" lon="1.519699">
        <ele>248.6</ele>
        <time>2014-02-03T15:18:14Z</time>
      </trkpt>
      <trkpt lat="43.465360" lon="1.519760">
        <ele>248.7</ele>
        <time>2014-02-03T15:18:22Z</time>
      </trkpt>
      <trkpt lat="43.465463" lon="1.519824">
        <ele>249.1</ele>
        <time>2014-02-03T15:18:30Z</time>
      </trkpt>
      <trkpt lat="43.465544" lon="1.519915">
        <ele>249.4</ele>
        <time>2014-02-03T15:18:38Z</time>
      </trkpt>
      <trkpt lat="43.465616" lon="1.519874">
        <ele>249.4</ele>
        <time>2014-02-03T15:18:47Z</time>
      </trkpt>
      <trkpt lat="43.465652" lon="1.519754">
        <ele>249.5</ele>
        <time>2014-02-03T15:18:55Z</time>
      </trkpt>
      <trkpt lat="43.465677" lon="1.519619">
        <ele>249.6</ele>
        <time>2014-02-03T15:19:03Z</time>
      </trkpt>
      <trkpt lat="43.465705" lon="1.519501">
        <ele>249.2</ele>
        <time>2014-02-03T15:19:11Z</time>
      </trkpt>
      <trkpt lat="43.465727" lon="1.519364">
        <ele>248.7</ele>
        <time>2014-02-03T15:19:19Z</time>
      </trkpt>
      <trkpt lat="43.465755" lon="1.519242">
        <ele>248.6</ele>
        <time>2014-02-03T15:19:27Z</time>
      </trkpt>
      <trkpt lat="43.465778" lon="1.519115">
        <ele>248.2</ele>
        <time>2014-02-03T15:19:35Z</time>
      </trkpt>
      <trkpt lat="43.465802" lon="1.518985">
        <ele>247.7</ele>
        <time>2014-02-03T15:19:43Z</time>
      </trkpt>
      <trkpt lat="43.465824" lon="1.518847">
        <ele>247.4</ele>
        <time>2014-02-03T15:19:51Z</time>
      </trkpt>
      <trkpt lat="43.465847" lon="1.518724">
        <ele>246.9</ele>
        <time>2014-02-03T15:19:59Z</time>
      </trkpt>
      <trkpt lat="43.465871" lon="1.518594">
        <ele>246.2</ele>
        <time>2014-02-03T15:20:07Z</time>
      </trkpt>
      <trkpt lat="43.465890" lon="1.518468">
        <ele>245.8</ele>
        <time>2014-02-03T15:20:15Z</time>
      </trkpt>
      <trkpt lat="43.465909" lon="1.518349">
        <ele>245.5</ele>
        <time>2014-02-03T15:20:23Z</time>
      </trkpt>
      <trkpt lat="43.465934" lon="1.518215">
        <ele>245.1</ele>
        <time>2014-02-03T15:20:32Z</time>
      </trkpt>
      <trkpt lat="43.465958" lon="1.518088">
        <ele>244.6</ele>
        <time>2014-02-03T15:20:40Z</time>
      </trkpt>
      <trkpt lat="43.465983" lon="1.517963">
        <ele>244.2</ele>
        <time>2014-02-03T15:20:48Z</time>
      </trkpt>
      <trkpt lat="43.466013" lon="1.517838">
        <ele>244.1</ele>
        <time>2014-02-03T15:20:56Z</time>
      </trkpt>
      <trkpt lat="43.466048" lon="1.517727">
        <ele>243.8</ele>
        <time>2014-02-03T15:21:04Z</time>
      </trkpt>
      <trkpt lat="43.466103" lon="1.517619">
        <ele>243.5</ele>
        <time>2014-02-03T15:21:13Z</time>
      </trkpt>
      <trkpt lat="43.466169" lon="1.517523">
        <ele>243.1</ele>
        <time>2014-02-03T15:21:21Z</time>
      </trkpt>
      <trkpt lat="43.466247" lon="1.517426">
        <ele>242.5</ele>
        <time>2014-02-03T15:21:30Z</time>
      </trkpt>
      <trkpt lat="43.466328" lon="1.517337">
        <ele>242.1</ele>
        <time>2014-02-03T15:21:39Z</time>
      </trkpt>
      <trkpt lat="43.466394" lon="1.517255">
        <ele>241.6</ele>
        <time>2014-02-03T15:21:47Z</time>
      </trkpt>
      <trkpt lat="43.466461" lon="1.517166">
        <ele>241.1</ele>
        <time>2014-02-03T15:21:56Z</time>
      </trkpt>
      <trkpt lat="43.466484" lon="1.517052">
        <ele>240.6</ele>
        <time>2014-02-03T15:22:32Z</time>
      </trkpt>
      <trkpt lat="43.466502" lon="1.516917">
        <ele>238.9</ele>
        <time>2014-02-03T15:22:41Z</time>
      </trkpt>
      <trkpt lat="43.466526" lon="1.516791">
        <ele>237.8</ele>
        <time>2014-02-03T15:22:49Z</time>
      </trkpt>
      <trkpt lat="43.466562" lon="1.516668">
        <ele>236.9</ele>
        <time>2014-02-03T15:22:57Z</time>
      </trkpt>
      <trkpt lat="43.466584" lon="1.516555">
        <ele>236.1</ele>
        <time>2014-02-03T15:23:05Z</time>
      </trkpt>
      <trkpt lat="43.466604" lon="1.516460">
        <ele>235.3</ele>
        <time>2014-02-03T15:23:33Z</time>
      </trkpt>
      <trkpt lat="43.466645" lon="1.516342">
        <ele>235.0</ele>
        <time>2014-02-03T15:23:41Z</time>
      </trkpt>
      <trkpt lat="43.466668" lon="1.516218">
        <ele>234.5</ele>
        <time>2014-02-03T15:23:50Z</time>
      </trkpt>
      <trkpt lat="43.466693" lon="1.516073">
        <ele>233.9</ele>
        <time>2014-02-03T15:23:59Z</time>
      </trkpt>
      <trkpt lat="43.466724" lon="1.515958">
        <ele>233.2</ele>
        <time>2014-02-03T15:24:07Z</time>
      </trkpt>
      <trkpt lat="43.466751" lon="1.515840">
        <ele>232.5</ele>
        <time>2014-02-03T15:24:15Z</time>
      </trkpt>
      <trkpt lat="43.466779" lon="1.515705">
        <ele>231.9</ele>
        <time>2014-02-03T15:24:24Z</time>
      </trkpt>
      <trkpt lat="43.466808" lon="1.515566">
        <ele>231.4</ele>
        <time>2014-02-03T15:24:32Z</time>
      </trkpt>
      <trkpt lat="43.466836" lon="1.515440">
        <ele>230.8</ele>
        <time>2014-02-03T15:24:40Z</time>
      </trkpt>
      <trkpt lat="43.466856" lon="1.515318">
        <ele>230.2</ele>
        <time>2014-02-03T15:24:48Z</time>
      </trkpt>
      <trkpt lat="43.466888" lon="1.515195">
        <ele>229.8</ele>
        <time>2014-02-03T15:24:56Z</time>
      </trkpt>
      <trkpt lat="43.466917" lon="1.515066">
        <ele>229.2</ele>
        <time>2014-02-03T15:25:04Z</time>
      </trkpt>
      <trkpt lat="43.466951" lon="1.514938">
        <ele>228.7</ele>
        <time>2014-02-03T15:25:13Z</time>
      </trkpt>
      <trkpt lat="43.466970" lon="1.514808">
        <ele>228.1</ele>
        <time>2014-02-03T15:25:22Z</time>
      </trkpt>
      <trkpt lat="43.466989" lon="1.514688">
        <ele>227.3</ele>
        <time>2014-02-03T15:25:31Z</time>
      </trkpt>
      <trkpt lat="43.467008" lon="1.514558">
        <ele>226.5</ele>
        <time>2014-02-03T15:25:40Z</time>
      </trkpt>
      <trkpt lat="43.467025" lon="1.514440">
        <ele>226.2</ele>
        <time>2014-02-03T15:25:48Z</time>
      </trkpt>
      <trkpt lat="43.467052" lon="1.514321">
        <ele>225.7</ele>
        <time>2014-02-03T15:25:56Z</time>
      </trkpt>
      <trkpt lat="43.467085" lon="1.514211">
        <ele>225.3</ele>
        <time>2014-02-03T15:26:04Z</time>
      </trkpt>
      <trkpt lat="43.467117" lon="1.514094">
        <ele>224.8</ele>
        <time>2014-02-03T15:26:12Z</time>
      </trkpt>
      <trkpt lat="43.467162" lon="1.513974">
        <ele>224.8</ele>
        <time>2014-02-03T15:26:21Z</time>
      </trkpt>
      <trkpt lat="43.467204" lon="1.513852">
        <ele>224.7</ele>
        <time>2014-02-03T15:26:29Z</time>
      </trkpt>
      <trkpt lat="43.467230" lon="1.513738">
        <ele>224.8</ele>
        <time>2014-02-03T15:26:39Z</time>
      </trkpt>
      <trkpt lat="43.467273" lon="1.513627">
        <ele>224.5</ele>
        <time>2014-02-03T15:26:47Z</time>
      </trkpt>
      <trkpt lat="43.467326" lon="1.513511">
        <ele>224.1</ele>
        <time>2014-02-03T15:26:56Z</time>
      </trkpt>
      <trkpt lat="43.467382" lon="1.513413">
        <ele>223.7</ele>
        <time>2014-02-03T15:27:05Z</time>
      </trkpt>
      <trkpt lat="43.467406" lon="1.513288">
        <ele>223.2</ele>
        <time>2014-02-03T15:27:14Z</time>
      </trkpt>
      <trkpt lat="43.467467" lon="1.513183">
        <ele>222.7</ele>
        <time>2014-02-03T15:27:23Z</time>
      </trkpt>
      <trkpt lat="43.467526" lon="1.513082">
        <ele>222.4</ele>
        <time>2014-02-03T15:27:32Z</time>
      </trkpt>
      <trkpt lat="43.467586" lon="1.512974">
        <ele>222.4</ele>
        <time>2014-02-03T15:27:41Z</time>
      </trkpt>
      <trkpt lat="43.467655" lon="1.512883">
        <ele>221.9</ele>
        <time>2014-02-03T15:27:50Z</time>
      </trkpt>
      <trkpt lat="43.467710" lon="1.512786">
        <ele>221.7</ele>
        <time>2014-02-03T15:27:58Z</time>
      </trkpt>
      <trkpt lat="43.467776" lon="1.512655">
        <ele>221.4</ele>
        <time>2014-02-03T15:28:07Z</time>
      </trkpt>
      <trkpt lat="43.467833" lon="1.512548">
        <ele>221.2</ele>
        <time>2014-02-03T15:28:16Z</time>
      </trkpt>
      <trkpt lat="43.467888" lon="1.512438">
        <ele>221.0</ele>
        <time>2014-02-03T15:28:25Z</time>
      </trkpt>
      <trkpt lat="43.467928" lon="1.512330">
        <ele>220.8</ele>
        <time>2014-02-03T15:28:33Z</time>
      </trkpt>
      <trkpt lat="43.467981" lon="1.512225">
        <ele>220.5</ele>
        <time>2014-02-03T15:28:42Z</time>
      </trkpt>
      <trkpt lat="43.468041" lon="1.512116">
        <ele>220.1</ele>
        <time>2014-02-03T15:28:52Z</time>
      </trkpt>
      <trkpt lat="43.468106" lon="1.512012">
        <ele>220.0</ele>
        <time>2014-02-03T15:29:04Z</time>
      </trkpt>
      <trkpt lat="43.468168" lon="1.511884">
        <ele>219.6</ele>
        <time>2014-02-03T15:29:13Z</time>
      </trkpt>
      <trkpt lat="43.468218" lon="1.511762">
        <ele>219.0</ele>
        <time>2014-02-03T15:29:23Z</time>
      </trkpt>
      <trkpt lat="43.468283" lon="1.511658">
        <ele>218.1</ele>
        <time>2014-02-03T15:29:33Z</time>
      </trkpt>
      <trkpt lat="43.468332" lon="1.511523">
        <ele>217.1</ele>
        <time>2014-02-03T15:29:45Z</time>
      </trkpt>
      <trkpt lat="43.468386" lon="1.511392">
        <ele>216.4</ele>
        <time>2014-02-03T15:29:57Z</time>
      </trkpt>
      <trkpt lat="43.468424" lon="1.511262">
        <ele>215.8</ele>
        <time>2014-02-03T15:30:07Z</time>
      </trkpt>
      <trkpt lat="43.468478" lon="1.511132">
        <ele>214.9</ele>
        <time>2014-02-03T15:30:18Z</time>
      </trkpt>
      <trkpt lat="43.468512" lon="1.511017">
        <ele>213.7</ele>
        <time>2014-02-03T15:30:29Z</time>
      </trkpt>
      <trkpt lat="43.468536" lon="1.510888">
        <ele>212.8</ele>
        <time>2014-02-03T15:30:40Z</time>
      </trkpt>
      <trkpt lat="43.468548" lon="1.510777">
        <ele>211.1</ele>
        <time>2014-02-03T15:30:57Z</time>
      </trkpt>
      <trkpt lat="43.468573" lon="1.510653">
        <ele>210.6</ele>
        <time>2014-02-03T15:31:07Z</time>
      </trkpt>
      <trkpt lat="43.468612" lon="1.510532">
        <ele>210.2</ele>
        <time>2014-02-03T15:31:17Z</time>
      </trkpt>
      <trkpt lat="43.468645" lon="1.510406">
        <ele>209.4</ele>
        <time>2014-02-03T15:31:28Z</time>
      </trkpt>
      <trkpt lat="43.468690" lon="1.510285">
        <ele>208.7</ele>
        <time>2014-02-03T15:31:38Z</time>
      </trkpt>
      <trkpt lat="43.468742" lon="1.510155">
        <ele>208.1</ele>
        <time>2014-02-03T15:31:47Z</time>
      </trkpt>
      <trkpt lat="43.468786" lon="1.510011">
        <ele>207.7</ele>
        <time>2014-02-03T15:31:56Z</time>
      </trkpt>
      <trkpt lat="43.468838" lon="1.509894">
        <ele>207.6</ele>
        <time>2014-02-03T15:32:05Z</time>
      </trkpt>
      <trkpt lat="43.468881" lon="1.509768">
        <ele>207.4</ele>
        <time>2014-02-03T15:32:14Z</time>
      </trkpt>
      <trkpt lat="43.468930" lon="1.509633">
        <ele>207.3</ele>
        <time>2014-02-03T15:32:23Z</time>
      </trkpt>
      <trkpt lat="43.468960" lon="1.509495">
        <ele>207.3</ele>
        <time>2014-02-03T15:32:31Z</time>
      </trkpt>
      <trkpt lat="43.468987" lon="1.509367">
        <ele>207.1</ele>
        <time>2014-02-03T15:32:39Z</time>
      </trkpt>
      <trkpt lat="43.469026" lon="1.509239">
        <ele>206.8</ele>
        <time>2014-02-03T15:32:47Z</time>
      </trkpt>
      <trkpt lat="43.469063" lon="1.509116">
        <ele>206.2</ele>
        <time>2014-02-03T15:32:55Z</time>
      </trkpt>
      <trkpt lat="43.469104" lon="1.508987">
        <ele>206.0</ele>
        <time>2014-02-03T15:33:03Z</time>
      </trkpt>
      <trkpt lat="43.469160" lon="1.508888">
        <ele>205.6</ele>
        <time>2014-02-03T15:33:13Z</time>
      </trkpt>
      <trkpt lat="43.469227" lon="1.508793">
        <ele>205.3</ele>
        <time>2014-02-03T15:33:21Z</time>
      </trkpt>
      <trkpt lat="43.469274" lon="1.508671">
        <ele>205.0</ele>
        <time>2014-02-03T15:33:29Z</time>
      </trkpt>
      <trkpt lat="43.469326" lon="1.508544">
        <ele>204.9</ele>
        <time>2014-02-03T15:33:37Z</time>
      </trkpt>
      <trkpt lat="43.469379" lon="1.508425">
        <ele>204.8</ele>
        <time>2014-02-03T15:33:45Z</time>
      </trkpt>
      <trkpt lat="43.469440" lon="1.508321">
        <ele>204.8</ele>
        <time>2014-02-03T15:33:53Z</time>
      </trkpt>
      <trkpt lat="43.469490" lon="1.508206">
        <ele>204.6</ele>
        <time>2014-02-03T15:34:01Z</time>
      </trkpt>
      <trkpt lat="43.469540" lon="1.508094">
        <ele>204.6</ele>
        <time>2014-02-03T15:34:09Z</time>
      </trkpt>
      <trkpt lat="43.469588" lon="1.507982">
        <ele>204.3</ele>
        <time>2014-02-03T15:34:17Z</time>
      </trkpt>
      <trkpt lat="43.469632" lon="1.507860">
        <ele>204.0</ele>
        <time>2014-02-03T15:34:25Z</time>
      </trkpt>
      <trkpt lat="43.469658" lon="1.507734">
        <ele>204.1</ele>
        <time>2014-02-03T15:34:33Z</time>
      </trkpt>
      <trkpt lat="43.469689" lon="1.507606">
        <ele>204.0</ele>
        <time>2014-02-03T15:34:42Z</time>
      </trkpt>
      <trkpt lat="43.469714" lon="1.507454">
        <ele>203.6</ele>
        <time>2014-02-03T15:34:51Z</time>
      </trkpt>
      <trkpt lat="43.469765" lon="1.507326">
        <ele>203.5</ele>
        <time>2014-02-03T15:35:01Z</time>
      </trkpt>
      <trkpt lat="43.469799" lon="1.507206">
        <ele>203.2</ele>
        <time>2014-02-03T15:35:11Z</time>
      </trkpt>
      <trkpt lat="43.469843" lon="1.507080">
        <ele>203.5</ele>
        <time>2014-02-03T15:35:21Z</time>
      </trkpt>
      <trkpt lat="43.469900" lon="1.506968">
        <ele>203.4</ele>
        <time>2014-02-03T15:35:30Z</time>
      </trkpt>
      <trkpt lat="43.469958" lon="1.506856">
        <ele>203.5</ele>
        <time>2014-02-03T15:35:39Z</time>
      </trkpt>
      <trkpt lat="43.470027" lon="1.506745">
        <ele>203.8</ele>
        <time>2014-02-03T15:35:48Z</time>
      </trkpt>
      <trkpt lat="43.470069" lon="1.506598">
        <ele>203.9</ele>
        <time>2014-02-03T15:35:58Z</time>
      </trkpt>
      <trkpt lat="43.470125" lon="1.506494">
        <ele>203.5</ele>
        <time>2014-02-03T15:36:06Z</time>
      </trkpt>
      <trkpt lat="43.470182" lon="1.506364">
        <ele>203.1</ele>
        <time>2014-02-03T15:36:15Z</time>
      </trkpt>
      <trkpt lat="43.470219" lon="1.506231">
        <ele>202.6</ele>
        <time>2014-02-03T15:36:24Z</time>
      </trkpt>
      <trkpt lat="43.470275" lon="1.506108">
        <ele>202.2</ele>
        <time>2014-02-03T15:36:33Z</time>
      </trkpt>
      <trkpt lat="43.470321" lon="1.505995">
        <ele>201.9</ele>
        <time>2014-02-03T15:36:42Z</time>
      </trkpt>
      <trkpt lat="43.470329" lon="1.505852">
        <ele>201.5</ele>
        <time>2014-02-03T15:36:50Z</time>
      </trkpt>
      <trkpt lat="43.470364" lon="1.505734">
        <ele>200.6</ele>
        <time>2014-02-03T15:37:00Z</time>
      </trkpt>
      <trkpt lat="43.470374" lon="1.505599">
        <ele>199.9</ele>
        <time>2014-02-03T15:37:10Z</time>
      </trkpt>
      <trkpt lat="43.470388" lon="1.505453">
        <ele>199.4</ele>
        <time>2014-02-03T15:37:21Z</time>
      </trkpt>
      <trkpt lat="43.470413" lon="1.505408">
        <ele>199.3</ele>
        <time>2014-02-03T15:37:51Z</time>
      </trkpt>
      <trkpt lat="43.470446" lon="1.505263">
        <ele>199.5</ele>
        <time>2014-02-03T15:38:02Z</time>
      </trkpt>
      <trkpt lat="43.470473" lon="1.505125">
        <ele>199.6</ele>
        <time>2014-02-03T15:38:11Z</time>
      </trkpt>
      <trkpt lat="43.470496" lon="1.504983">
        <ele>199.4</ele>
        <time>2014-02-03T15:38:20Z</time>
      </trkpt>
      <trkpt lat="43.470516" lon="1.504860">
        <ele>199.0</ele>
        <time>2014-02-03T15:38:28Z</time>
      </trkpt>
      <trkpt lat="43.470540" lon="1.504722">
        <ele>198.7</ele>
        <time>2014-02-03T15:38:37Z</time>
      </trkpt>
      <trkpt lat="43.470570" lon="1.504594">
        <ele>198.6</ele>
        <time>2014-02-03T15:38:48Z</time>
      </trkpt>
      <trkpt lat="43.470606" lon="1.504450">
        <ele>198.5</ele>
        <time>2014-02-03T15:38:59Z</time>
      </trkpt>
      <trkpt lat="43.470626" lon="1.504315">
        <ele>198.5</ele>
        <time>2014-02-03T15:39:09Z</time>
      </trkpt>
      <trkpt lat="43.470644" lon="1.504181">
        <ele>198.4</ele>
        <time>2014-02-03T15:39:17Z</time>
      </trkpt>
      <trkpt lat="43.470664" lon="1.504033">
        <ele>198.3</ele>
        <time>2014-02-03T15:39:26Z</time>
      </trkpt>
      <trkpt lat="43.470695" lon="1.503888">
        <ele>198.0</ele>
        <time>2014-02-03T15:39:35Z</time>
      </trkpt>
      <trkpt lat="43.470741" lon="1.503771">
        <ele>198.2</ele>
        <time>2014-02-03T15:39:44Z</time>
      </trkpt>
      <trkpt lat="43.470777" lon="1.503654">
        <ele>197.9</ele>
        <time>2014-02-03T15:39:53Z</time>
      </trkpt>
      <trkpt lat="43.470794" lon="1.503520">
        <ele>197.7</ele>
        <time>2014-02-03T15:40:02Z</time>
      </trkpt>
      <trkpt lat="43.470817" lon="1.503379">
        <ele>197.7</ele>
        <time>2014-02-03T15:40:11Z</time>
      </trkpt>
      <trkpt lat="43.470854" lon="1.503244">
        <ele>197.7</ele>
        <time>2014-02-03T15:40:20Z</time>
      </trkpt>
      <trkpt lat="43.470877" lon="1.503098">
        <ele>197.7</ele>
        <time>2014-02-03T15:40:30Z</time>
      </trkpt>
      <trkpt lat="43.470925" lon="1.502980">
        <ele>197.8</ele>
        <time>2014-02-03T15:40:40Z</time>
      </trkpt>
      <trkpt lat="43.470935" lon="1.502850">
        <ele>197.7</ele>
        <time>2014-02-03T15:40:49Z</time>
      </trkpt>
      <trkpt lat="43.470923" lon="1.502714">
        <ele>197.6</ele>
        <time>2014-02-03T15:40:58Z</time>
      </trkpt>
      <trkpt lat="43.470898" lon="1.502557">
        <ele>197.6</ele>
        <time>2014-02-03T15:41:07Z</time>
      </trkpt>
      <trkpt lat="43.470881" lon="1.502429">
        <ele>197.5</ele>
        <time>2014-02-03T15:41:15Z</time>
      </trkpt>
      <trkpt lat="43.470871" lon="1.502298">
        <ele>197.5</ele>
        <time>2014-02-03T15:41:23Z</time>
      </trkpt>
      <trkpt lat="43.470868" lon="1.502153">
        <ele>197.2</ele>
        <time>2014-02-03T15:41:33Z</time>
      </trkpt>
      <trkpt lat="43.470879" lon="1.501998">
        <ele>197.1</ele>
        <time>2014-02-03T15:41:43Z</time>
      </trkpt>
      <trkpt lat="43.470862" lon="1.501851">
        <ele>196.8</ele>
        <time>2014-02-03T15:41:51Z</time>
      </trkpt>
      <trkpt lat="43.470872" lon="1.501707">
        <ele>196.7</ele>
        <time>2014-02-03T15:42:00Z</time>
      </trkpt>
      <trkpt lat="43.470868" lon="1.501558">
        <ele>196.7</ele>
        <time>2014-02-03T15:42:09Z</time>
      </trkpt>
      <trkpt lat="43.470878" lon="1.501410">
        <ele>196.3</ele>
        <time>2014-02-03T15:42:19Z</time>
      </trkpt>
      <trkpt lat="43.470875" lon="1.501267">
        <ele>196.2</ele>
        <time>2014-02-03T15:42:27Z</time>
      </trkpt>
      <trkpt lat="43.470872" lon="1.501132">
        <ele>196.1</ele>
        <time>2014-02-03T15:42:36Z</time>
      </trkpt>
      <trkpt lat="43.470861" lon="1.500987">
        <ele>195.7</ele>
        <time>2014-02-03T15:42:46Z</time>
      </trkpt>
      <trkpt lat="43.470900" lon="1.500944">
        <ele>195.8</ele>
        <time>2014-02-03T15:43:35Z</time>
      </trkpt>
      <trkpt lat="43.470896" lon="1.500783">
        <ele>195.4</ele>
        <time>2014-02-03T15:43:47Z</time>
      </trkpt>
      <trkpt lat="43.470897" lon="1.500623">
        <ele>195.2</ele>
        <time>2014-02-03T15:43:58Z</time>
      </trkpt>
      <trkpt lat="43.470869" lon="1.500473">
        <ele>194.9</ele>
        <time>2014-02-03T15:44:11Z</time>
      </trkpt>
      <trkpt lat="43.470866" lon="1.500270">
        <ele>194.5</ele>
        <time>2014-02-03T15:44:24Z</time>
      </trkpt>
      <trkpt lat="43.470838" lon="1.500092">
        <ele>194.7</ele>
        <time>2014-02-03T15:44:37Z</time>
      </trkpt>
      <trkpt lat="43.470837" lon="1.499838">
        <ele>194.2</ele>
        <time>2014-02-03T15:46:05Z</time>
      </trkpt>
      <trkpt lat="43.470819" lon="1.499694">
        <ele>194.2</ele>
        <time>2014-02-03T15:46:17Z</time>
      </trkpt>
      <trkpt lat="43.470720" lon="1.499642">
        <ele>194.1</ele>
        <time>2014-02-03T15:46:26Z</time>
      </trkpt>
      <trkpt lat="43.470646" lon="1.499521">
        <ele>194.0</ele>
        <time>2014-02-03T15:46:35Z</time>
      </trkpt>
      <trkpt lat="43.470641" lon="1.499390">
        <ele>194.1</ele>
        <time>2014-02-03T15:46:45Z</time>
      </trkpt>
      <trkpt lat="43.470664" lon="1.499225">
        <ele>193.9</ele>
        <time>2014-02-03T15:46:58Z</time>
      </trkpt>
      <trkpt lat="43.470664" lon="1.499085">
        <ele>193.8</ele>
        <time>2014-02-03T15:47:09Z</time>
      </trkpt>
      <trkpt lat="43.470661" lon="1.498941">
        <ele>193.7</ele>
        <time>2014-02-03T15:47:18Z</time>
      </trkpt>
      <trkpt lat="43.470670" lon="1.498793">
        <ele>193.7</ele>
        <time>2014-02-03T15:47:28Z</time>
      </trkpt>
      <trkpt lat="43.470674" lon="1.498651">
        <ele>193.9</ele>
        <time>2014-02-03T15:47:38Z</time>
      </trkpt>
      <trkpt lat="43.470686" lon="1.498501">
        <ele>194.1</ele>
        <time>2014-02-03T15:47:49Z</time>
      </trkpt>
      <trkpt lat="43.470690" lon="1.498354">
        <ele>194.1</ele>
        <time>2014-02-03T15:47:59Z</time>
      </trkpt>
      <trkpt lat="43.470679" lon="1.498202">
        <ele>193.6</ele>
        <time>2014-02-03T15:48:11Z</time>
      </trkpt>
      <trkpt lat="43.470688" lon="1.498016">
        <ele>193.1</ele>
        <time>2014-02-03T15:48:22Z</time>
      </trkpt>
      <trkpt lat="43.470703" lon="1.497852">
        <ele>193.0</ele>
        <time>2014-02-03T15:48:33Z</time>
      </trkpt>
      <trkpt lat="43.470712" lon="1.497683">
        <ele>192.8</ele>
        <time>2014-02-03T15:48:43Z</time>
      </trkpt>
      <trkpt lat="43.470744" lon="1.497537">
        <ele>192.8</ele>
        <time>2014-02-03T15:48:52Z</time>
      </trkpt>
      <trkpt lat="43.470746" lon="1.497397">
        <ele>192.8</ele>
        <time>2014-02-03T15:49:01Z</time>
      </trkpt>
      <trkpt lat="43.470735" lon="1.497249">
        <ele>192.6</ele>
        <time>2014-02-03T15:49:11Z</time>
      </trkpt>
      <trkpt lat="43.470743" lon="1.497077">
        <ele>192.6</ele>
        <time>2014-02-03T15:49:21Z</time>
      </trkpt>
      <trkpt lat="43.470783" lon="1.496920">
        <ele>192.2</ele>
        <time>2014-02-03T15:49:32Z</time>
      </trkpt>
      <trkpt lat="43.470812" lon="1.496779">
        <ele>192.1</ele>
        <time>2014-02-03T15:49:42Z</time>
      </trkpt>
      <trkpt lat="43.470816" lon="1.496625">
        <ele>192.1</ele>
        <time>2014-02-03T15:49:53Z</time>
      </trkpt>
      <trkpt lat="43.470830" lon="1.496457">
        <ele>192.2</ele>
        <time>2014-02-03T15:50:03Z</time>
      </trkpt>
      <trkpt lat="43.470845" lon="1.496280">
        <ele>192.4</ele>
        <time>2014-02-03T15:50:14Z</time>
      </trkpt>
      <trkpt lat="43.470849" lon="1.496110">
        <ele>192.5</ele>
        <time>2014-02-03T15:50:24Z</time>
      </trkpt>
      <trkpt lat="43.470860" lon="1.495958">
        <ele>192.2</ele>
        <time>2014-02-03T15:50:34Z</time>
      </trkpt>
      <trkpt lat="43.470881" lon="1.495787">
        <ele>191.8</ele>
        <time>2014-02-03T15:50:46Z</time>
      </trkpt>
      <trkpt lat="43.470889" lon="1.495611">
        <ele>191.4</ele>
        <time>2014-02-03T15:50:58Z</time>
      </trkpt>
      <trkpt lat="43.470918" lon="1.495439">
        <ele>190.5</ele>
        <time>2014-02-03T15:51:10Z</time>
      </trkpt>
      <trkpt lat="43.471030" lon="1.495380">
        <ele>190.0</ele>
        <time>2014-02-03T15:51:22Z</time>
      </trkpt>
      <trkpt lat="43.471191" lon="1.495423">
        <ele>190.2</ele>
        <time>2014-02-03T15:51:36Z</time>
      </trkpt>
      <trkpt lat="43.471345" lon="1.495457">
        <ele>190.7</ele>
        <time>2014-02-03T15:51:47Z</time>
      </trkpt>
      <trkpt lat="43.471482" lon="1.495487">
        <ele>191.4</ele>
        <time>2014-02-03T15:51:59Z</time>
      </trkpt>
      <trkpt lat="43.471568" lon="1.495536">
        <ele>192.5</ele>
        <time>2014-02-03T15:52:09Z</time>
      </trkpt>
      <trkpt lat="43.471655" lon="1.495567">
        <ele>193.6</ele>
        <time>2014-02-03T15:52:19Z</time>
      </trkpt>
      <trkpt lat="43.471752" lon="1.495587">
        <ele>195.1</ele>
        <time>2014-02-03T15:52:32Z</time>
      </trkpt>
      <trkpt lat="43.471849" lon="1.495615">
        <ele>196.7</ele>
        <time>2014-02-03T15:52:45Z</time>
      </trkpt>
      <trkpt lat="43.471964" lon="1.495640">
        <ele>198.8</ele>
        <time>2014-02-03T15:52:59Z</time>
      </trkpt>
      <trkpt lat="43.472068" lon="1.495662">
        <ele>200.6</ele>
        <time>2014-02-03T15:53:15Z</time>
      </trkpt>
      <trkpt lat="43.472172" lon="1.495683">
        <ele>202.9</ele>
        <time>2014-02-03T15:53:31Z</time>
      </trkpt>
      <trkpt lat="43.472298" lon="1.495689">
        <ele>205.1</ele>
        <time>2014-02-03T15:53:46Z</time>
      </trkpt>
      <trkpt lat="43.472406" lon="1.495705">
        <ele>206.8</ele>
        <time>2014-02-03T15:54:01Z</time>
      </trkpt>
      <trkpt lat="43.472529" lon="1.495703">
        <ele>209.0</ele>
        <time>2014-02-03T15:54:20Z</time>
      </trkpt>
      <trkpt lat="43.472659" lon="1.495621">
        <ele>211.1</ele>
        <time>2014-02-03T15:54:38Z</time>
      </trkpt>
      <trkpt lat="43.472746" lon="1.495523">
        <ele>213.1</ele>
        <time>2014-02-03T15:54:53Z</time>
      </trkpt>
      <trkpt lat="43.472835" lon="1.495394">
        <ele>215.6</ele>
        <time>2014-02-03T15:55:12Z</time>
      </trkpt>
      <trkpt lat="43.472954" lon="1.495284">
        <ele>217.8</ele>
        <time>2014-02-03T15:55:31Z</time>
      </trkpt>
      <trkpt lat="43.473082" lon="1.495228">
        <ele>220.6</ele>
        <time>2014-02-03T15:55:50Z</time>
      </trkpt>
      <trkpt lat="43.473179" lon="1.495111">
        <ele>222.7</ele>
        <time>2014-02-03T15:56:07Z</time>
      </trkpt>
      <trkpt lat="43.473230" lon="1.494931">
        <ele>223.4</ele>
        <time>2014-02-03T15:56:23Z</time>
      </trkpt>
      <trkpt lat="43.473291" lon="1.494799">
        <ele>224.2</ele>
        <time>2014-02-03T15:56:36Z</time>
      </trkpt>
      <trkpt lat="43.473360" lon="1.494899">
        <ele>225.6</ele>
        <time>2014-02-03T15:56:49Z</time>
      </trkpt>
      <trkpt lat="43.473373" lon="1.494968">
        <ele>226.1</ele>
        <time>2014-02-03T15:57:02Z</time>
      </trkpt>
    </trkseg>
  </trk>
</gpx>

